TO3013 / F-GZHD 7700 Squawk Report (8th of January, 2019)

Aircraft B738 Reg No. F-GZHD Age 10 years old
Model 737 Jet engines 2 First flight 11-04-08
Registered 31-03-17 Rollout 28-03-08 Delivered 21-04-08
Construction No. 29650 Line No. 2583 Series 8K2
ADSHEX 3964E3 Airline name Transavia France Owner Babcock & Brown
Airfield based Paris-Orly~Essonne~F First tracked 2017-07-13 07:15:00

Flight history for F-GZHD

Route Flight No Date Playback
Menara (RAK) - Nantes Atlantique (NTE) TO4609 2019-01-20 09:19:00
Nantes Atlantique (NTE) - Menara (RAK) TO4608 2019-01-20 09:01:00
Mohammed V Intl (CMN) - Nantes Atlantique (NTE) TO4669 2019-01-20 05:17:00
Nantes Atlantique (NTE) - Mohammed V Intl (CMN) TO4668 2019-01-19 18:30:00
Menara (RAK) - Nantes Atlantique (NTE) TO4609 2019-01-19 13:22:00
Orly (ORY) - Menara (RAK) TO3018 2019-01-19 10:56:00
???? TO103 2019-01-18 19:00:00
Ferihegy (BUD) - Orly (ORY) TO102 2019-01-14 06:38:00
Inezgane (AGA) - Orly (ORY) TO3009 2019-01-13 21:42:00
Orly (ORY) - Inezgane (AGA) TO3008 2019-01-13 16:49:00
Angads (OUD) - Orly (ORY) TO3021 2019-01-13 11:59:00
Orly (ORY) - Angads (OUD) TO3020 2019-01-13 09:42:00
Angads (OUD) - Orly (ORY) TO3029 2019-01-13 06:18:00
???? N/A 2019-01-12 16:11:00
Capodichino (NAP) - Orly (ORY) TO3829 2019-01-11 21:36:00
Orly (ORY) - Capodichino (NAP) TO3828 2019-01-11 18:16:00
Ben Gurion (TLV) - Orly (ORY) TO3303 2019-01-10 18:51:00
Orly (ORY) - Ben Gurion (TLV) TO3302 2019-01-10 12:30:00
Ben Gurion (TLV) - Orly (ORY) TO3309 2019-01-10 08:11:00
Orly (ORY) - Ben Gurion (TLV) TO3308 2019-01-09 14:55:00
Time Lat Lon Altitude Heading Speed Vertical Rate
2019-01-08 14:48:57 GMT 48.721790 2.368364 0 275 23 0
2019-01-08 14:48:43 GMT 48.721687 2.370688 0 264 24 0
2019-01-08 14:48:33 GMT 48.721947 2.372324 0 255 30 0
2019-01-08 14:48:18 GMT 48.722946 2.377713 0 255 52 0
2019-01-08 14:48:13 GMT 48.723621 2.381445 0 253 110 0
2019-01-08 14:47:57 GMT 48.726105 2.395020 -25 255 147 -832
2019-01-08 14:47:45 GMT 48.728119 2.406076 125 255 146 -768
2019-01-08 14:47:39 GMT 48.729263 2.412062 200 255 148 -768
2019-01-08 14:47:35 GMT 48.730087 2.416499 275 253 152 -896
2019-01-08 14:47:32 GMT 48.730698 2.419594 300 254 153 -768
2019-01-08 14:47:25 GMT 48.732140 2.427328 400 256 149 -704
2019-01-08 14:47:20 GMT 48.733017 2.432415 475 255 146 -832
2019-01-08 14:47:14 GMT 48.733955 2.437736 550 255 146 -832
2019-01-08 14:47:10 GMT 48.734745 2.442073 600 254 148 -1024
2019-01-08 14:47:07 GMT 48.735306 2.445092 675 254 148 -1088
2019-01-08 14:47:04 GMT 48.735947 2.448261 700 254 148 -1088
2019-01-08 14:46:59 GMT 48.736748 2.452409 750 255 148 -704
2019-01-08 14:46:56 GMT 48.737259 2.455228 825 256 147 -768
2019-01-08 14:46:53 GMT 48.737869 2.458613 825 255 147 -704
2019-01-08 14:46:47 GMT 48.739059 2.465022 950 254 153 -768
2019-01-08 14:46:43 GMT 48.739773 2.468816 975 254 150 -1024
2019-01-08 14:46:40 GMT 48.740238 2.471201 975 254 150 -1024
2019-01-08 14:46:37 GMT 48.740936 2.474670 1,050 255 153 -832
2019-01-08 14:46:32 GMT 48.741943 2.480093 1,100 255 157 -832
2019-01-08 14:46:29 GMT 48.742493 2.483121 1,150 256 160 -768
2019-01-08 14:46:26 GMT 48.742985 2.485946 1,175 256 162 -512
2019-01-08 14:46:22 GMT 48.743965 2.491728 1,250 255 166 -960
2019-01-08 14:46:16 GMT 48.745193 2.498333 1,350 255 171 -1088
2019-01-08 14:46:11 GMT 48.746109 2.503404 1,425 255 174 -896
2019-01-08 14:46:08 GMT 48.746887 2.507700 1,675 255 174 -1088
2019-01-08 14:46:05 GMT 48.747391 2.510587 1,525 256 178 -1024
2019-01-08 14:46:02 GMT 48.748711 2.518688 1,600 257 182 -640
2019-01-08 14:45:59 GMT 48.748711 2.518688 1,625 257 185 -896
2019-01-08 14:45:54 GMT 48.749504 2.523747 1,675 258 187 -64
2019-01-08 14:45:50 GMT 48.750389 2.529457 1,675 259 193 -256
2019-01-08 14:45:47 GMT 48.750900 2.533144 1,700 258 195 64
2019-01-08 14:45:44 GMT 48.751457 2.536902 1,700 256 197 0
2019-01-08 14:45:40 GMT 48.752563 2.543124 1,700 255 199 0
2019-01-08 14:45:37 GMT 48.753250 2.546927 1,700 255 202 128
2019-01-08 14:45:34 GMT 48.754021 2.550996 1,675 253 203 -64
2019-01-08 14:45:31 GMT 48.755035 2.555589 1,675 249 204 0
2019-01-08 14:45:28 GMT 48.756020 2.559598 1,675 247 205 -64
2019-01-08 14:45:24 GMT 48.757782 2.565660 1,675 245 206 64
2019-01-08 14:45:20 GMT 48.758999 2.569572 1,675 244 206 320
2019-01-08 14:45:17 GMT 48.760391 2.573970 1,675 246 205 -192
2019-01-08 14:45:13 GMT 48.761673 2.578759 1,675 257 203 0
2019-01-08 14:45:10 GMT 48.762314 2.582632 1,675 262 202 0
2019-01-08 14:45:07 GMT 48.762589 2.588759 1,675 297 192 0
2019-01-08 14:45:03 GMT 48.762260 2.592846 1,675 294 193 -64
2019-01-08 14:45:00 GMT 48.761536 2.596788 1,675 292 193 64
2019-01-08 14:44:56 GMT 48.760025 2.601953 1,675 296 192 -64
2019-01-08 14:44:53 GMT 48.758835 2.605591 1,675 297 193 -128
2019-01-08 14:44:47 GMT 48.756672 2.612072 1,700 297 194 -256
2019-01-08 14:44:43 GMT 48.754807 2.617634 1,675 297 194 -256
2019-01-08 14:44:37 GMT 48.752438 2.624721 1,700 298 197 128
2019-01-08 14:44:33 GMT 48.750389 2.630575 1,700 299 199 192
2019-01-08 14:44:29 GMT 48.748398 2.635662 1,675 305 202 320
2019-01-08 14:44:26 GMT 48.747757 2.637000 1,675 309 204 256
2019-01-08 14:44:22 GMT 48.744846 2.641995 1,650 328 213 -64
2019-01-08 14:44:18 GMT 48.741669 2.645804 1,650 328 213 -64
2019-01-08 14:44:15 GMT 48.739609 2.647705 1,650 334 217 192
2019-01-08 14:44:11 GMT 48.735027 2.650885 1,650 341 225 -128
2019-01-08 14:44:08 GMT 48.732513 2.652212 1,650 341 224 -128
2019-01-08 14:44:05 GMT 48.729534 2.653849 1,650 341 228 -128
2019-01-08 14:43:58 GMT 48.722317 2.657752 1,675 340 234 -64
2019-01-08 14:43:54 GMT 48.718872 2.659677 1,675 340 235 -64
2019-01-08 14:43:47 GMT 48.711411 2.663692 1,675 342 237 -128
2019-01-08 14:43:44 GMT 48.708260 2.665124 1,700 346 237 -128
2019-01-08 14:43:39 GMT 48.702625 2.666714 1,725 2 241 -1280
2019-01-08 14:43:36 GMT 48.700195 2.666861 1,750 0 241 -1088
2019-01-08 14:43:33 GMT 48.696167 2.666509 1,800 8 242 -1344
2019-01-08 14:43:28 GMT 48.690491 2.664537 1,925 19 245 -1408
2019-01-08 14:43:23 GMT 48.685261 2.661293 2,050 27 247 -1216
2019-01-08 14:43:17 GMT 48.679642 2.655874 2,250 43 251 -1920
2019-01-08 14:43:13 GMT 48.675613 2.650100 2,350 49 251 -2176
2019-01-08 14:43:09 GMT 48.673279 2.645733 2,525 63 253 -256
2019-01-08 14:43:06 GMT 48.670761 2.639817 2,600 61 251 -1344
2019-01-08 14:43:02 GMT 48.668922 2.634550 2,650 63 253 -256
2019-01-08 14:42:58 GMT 48.667145 2.629113 2,675 63 253 0
2019-01-08 14:42:53 GMT 48.664314 2.620601 2,675 63 254 -64
2019-01-08 14:42:49 GMT 48.662109 2.613901 2,675 63 254 0
2019-01-08 14:42:45 GMT 48.660004 2.607563 2,675 63 254 0
2019-01-08 14:42:40 GMT 48.657795 2.600869 2,675 63 254 -64
2019-01-08 14:42:36 GMT 48.655701 2.594508 2,675 63 254 64
2019-01-08 14:42:32 GMT 48.653141 2.586919 2,675 63 254 -128
2019-01-08 14:42:28 GMT 48.651047 2.580558 2,675 63 253 64
2019-01-08 14:42:22 GMT 48.645401 2.563899 2,675 63 252 64
2019-01-08 14:42:17 GMT 48.645088 2.562995 2,675 63 252 0
2019-01-08 14:42:13 GMT 48.643112 2.556997 2,675 63 251 -64
2019-01-08 14:42:07 GMT 48.640060 2.547889 2,675 63 252 64
2019-01-08 14:42:02 GMT 48.636795 2.538123 2,675 63 251 128
2019-01-08 14:41:59 GMT 48.635868 2.535312 2,675 63 252 64
2019-01-08 14:41:55 GMT 48.633961 2.529674 2,675 63 252 0
2019-01-08 14:41:51 GMT 48.631577 2.522489 2,675 63 251 -64
2019-01-08 14:41:47 GMT 48.629166 2.515219 2,675 63 252 64
2019-01-08 14:41:41 GMT 48.626511 2.507051 2,675 63 251 128
2019-01-08 14:41:38 GMT 48.624573 2.501080 2,675 63 252 -64
2019-01-08 14:41:35 GMT 48.623627 2.498233 2,675 63 253 -128
2019-01-08 14:41:29 GMT 48.620224 2.487769 2,675 63 252 64
2019-01-08 14:41:25 GMT 48.618347 2.482065 2,675 64 253 -128
2019-01-08 14:41:21 GMT 48.615993 2.474670 2,675 64 254 64
2019-01-08 14:41:15 GMT 48.613106 2.465708 2,675 63 256 0
2019-01-08 14:41:10 GMT 48.610825 2.458697 2,675 63 257 -192
2019-01-08 14:41:05 GMT 48.607426 2.448361 2,675 63 260 -64
2019-01-08 14:41:00 GMT 48.605053 2.441205 2,675 63 260 -64
2019-01-08 14:40:54 GMT 48.601654 2.431520 2,675 61 264 0
2019-01-08 14:40:49 GMT 48.598862 2.424654 2,675 55 264 0
2019-01-08 14:40:42 GMT 48.592808 2.413956 2,650 45 267 64
2019-01-08 14:40:38 GMT 48.589462 2.408893 2,650 44 272 64
2019-01-08 14:40:34 GMT 48.586014 2.403838 2,675 44 277 128
2019-01-08 14:40:28 GMT 48.579620 2.394315 2,675 44 280 0
2019-01-08 14:40:23 GMT 48.575546 2.388259 2,675 44 280 64
2019-01-08 14:40:18 GMT 48.570930 2.381287 2,700 44 282 -192
2019-01-08 14:40:11 GMT 48.565018 2.372396 2,700 45 283 -192
2019-01-08 14:40:08 GMT 48.559429 2.364012 2,725 44 282 384
2019-01-08 14:40:02 GMT 48.555542 2.358187 2,700 44 282 512
2019-01-08 14:39:57 GMT 48.552029 2.352953 2,675 44 280 -64
2019-01-08 14:39:50 GMT 48.545609 2.343327 2,675 45 280 64
2019-01-08 14:39:46 GMT 48.541786 2.337558 2,675 45 279 -128
2019-01-08 14:39:40 GMT 48.535641 2.328162 2,700 45 277 -192
2019-01-08 14:39:31 GMT 48.528214 2.316848 2,775 45 279 -1152
2019-01-08 14:39:20 GMT 48.518372 2.301347 3,075 46 280 -2304
2019-01-08 14:39:15 GMT 48.513718 2.293974 3,300 46 280 -1984
2019-01-08 14:39:11 GMT 48.510269 2.288607 3,425 46 281 -2048
2019-01-08 14:39:05 GMT 48.503986 2.278723 3,675 46 282 -2368
2019-01-08 14:38:59 GMT 48.498913 2.270773 3,875 46 282 -1984
2019-01-08 14:38:54 GMT 48.494705 2.264240 4,050 46 284 -1920
2019-01-08 14:38:49 GMT 48.490356 2.257338 4,225 46 285 -2240
2019-01-08 14:38:43 GMT 48.485039 2.249017 4,450 46 288 -1600
2019-01-08 14:38:39 GMT 48.480198 2.241572 4,600 46 288 -1600
2019-01-08 14:38:31 GMT 48.473694 2.231351 4,800 46 294 -1600
2019-01-08 14:38:28 GMT 48.470840 2.226900 4,850 46 297 -1536
2019-01-08 14:38:23 GMT 48.466095 2.219379 5,100 46 301 -1600
2019-01-08 14:38:17 GMT 48.460373 2.210153 5,175 47 305 -1664
2019-01-08 14:38:12 GMT 48.455574 2.202253 5,525 47 307 -1792
2019-01-08 14:38:07 GMT 48.450394 2.193674 5,475 47 312 -1856
2019-01-08 14:38:01 GMT 48.445099 2.184978 5,625 47 315 -1856
2019-01-08 14:37:58 GMT 48.442154 2.180082 6,075 49 325 -2112
2019-01-08 14:37:55 GMT 48.439232 2.175148 5,875 48 318 -2112
2019-01-08 14:37:48 GMT 48.431740 2.162427 6,150 49 325 -2112
2019-01-08 14:37:45 GMT 48.428787 2.157264 6,250 49 326 -2112
2019-01-08 14:37:42 GMT 48.425827 2.152092 6,350 49 330 -2112
2019-01-08 14:37:37 GMT 48.421646 2.144728 6,525 49 333 -2304
2019-01-08 14:37:32 GMT 48.415237 2.133320 6,775 49 337 -2752
2019-01-08 14:37:27 GMT 48.411022 2.125782 7,000 50 339 -3136
2019-01-08 14:37:24 GMT 48.408005 2.120361 7,150 50 338 -3520
2019-01-08 14:37:21 GMT 48.404846 2.114586 7,325 50 338 -2752
2019-01-08 14:37:18 GMT 48.402420 2.110220 7,675 50 340 -2432
2019-01-08 14:37:14 GMT 48.397430 2.101135 7,650 50 340 -2496
2019-01-08 14:37:06 GMT 48.389748 2.087258 7,925 50 342 -2304
2019-01-08 14:37:03 GMT 48.386719 2.081768 8,050 50 343 -2688
2019-01-08 14:36:59 GMT 48.383102 2.075148 8,250 50 343 -2624
2019-01-08 14:36:56 GMT 48.379852 2.069233 8,475 50 344 -2496
2019-01-08 14:36:53 GMT 48.376804 2.063695 8,525 50 344 -2496
2019-01-08 14:36:50 GMT 48.373966 2.058563 8,625 50 345 -2432
2019-01-08 14:36:45 GMT 48.368706 2.048878 8,850 50 346 -2560
2019-01-08 14:36:42 GMT 48.365448 2.042951 8,975 50 347 -2496
2019-01-08 14:36:35 GMT 48.358383 2.029724 9,300 51 348 -2944
2019-01-08 14:36:32 GMT 48.354858 2.022822 9,450 54 352 -2432
2019-01-08 14:36:29 GMT 48.353111 2.019244 9,550 54 353 -2304
2019-01-08 14:36:24 GMT 48.348358 2.009301 10,050 54 353 -2368
2019-01-08 14:36:19 GMT 48.342911 1.998244 9,975 53 355 -2560
2019-01-08 14:36:14 GMT 48.337982 1.988381 10,150 53 355 -2688
2019-01-08 14:36:11 GMT 48.334625 1.981694 10,350 53 356 -2624
2019-01-08 14:36:05 GMT 48.329086 1.970637 10,575 52 357 -2688
2019-01-08 14:36:02 GMT 48.326660 1.965848 10,700 52 357 -2816
2019-01-08 14:35:58 GMT 48.322479 1.957590 10,900 52 359 -2496
2019-01-08 14:35:52 GMT 48.316269 1.945214 11,175 52 359 -2560
2019-01-08 14:35:47 GMT 48.311214 1.935256 11,375 52 361 -2304
2019-01-08 14:35:42 GMT 48.306152 1.925213 11,550 52 364 -2368
2019-01-08 14:35:38 GMT 48.302032 1.917185 11,875 52 367 -2688
2019-01-08 14:35:33 GMT 48.296505 1.906272 11,950 52 367 -2752
2019-01-08 14:35:27 GMT 48.291321 1.896198 12,175 52 368 -2816
2019-01-08 14:35:24 GMT 48.287426 1.888492 12,350 52 368 -2816
2019-01-08 14:35:21 GMT 48.284958 1.883577 12,475 52 369 -2752
2019-01-08 14:35:17 GMT 48.280396 1.874615 12,675 52 371 -2688
2019-01-08 14:35:12 GMT 48.274998 1.863990 12,900 52 371 -2816
2019-01-08 14:35:06 GMT 48.263947 1.842252 13,475 52 373 -2752
2019-01-08 14:35:01 GMT 48.263947 1.842252 13,425 52 373 -2816
2019-01-08 14:34:56 GMT 48.258286 1.831175 13,650 52 374 -2560
2019-01-08 14:34:50 GMT 48.252594 1.819998 13,900 52 376 -2752
2019-01-08 14:34:46 GMT 48.248600 1.812166 14,125 52 377 -2880
2019-01-08 14:34:40 GMT 48.241806 1.798794 14,375 52 379 -2496
2019-01-08 14:34:36 GMT 48.237350 1.789997 14,550 52 380 -2560
2019-01-08 14:34:30 GMT 48.230942 1.777391 14,775 52 381 -2752
2019-01-08 14:34:25 GMT 48.225605 1.766847 15,050 52 384 -2752
2019-01-08 14:34:19 GMT 48.219181 1.754126 15,325 52 384 -3136
2019-01-08 14:34:14 GMT 48.214691 1.745206 16,025 53 387 -2240
2019-01-08 14:34:10 GMT 48.209312 1.734539 16,000 53 385 -2944
2019-01-08 14:34:07 GMT 48.206753 1.729407 15,900 53 387 -2368
2019-01-08 14:34:03 GMT 48.202652 1.721262 16,025 53 387 -2240
2019-01-08 14:34:00 GMT 48.198509 1.713072 16,225 52 391 -2816
2019-01-08 14:33:57 GMT 48.195484 1.707073 16,350 52 391 -2816
2019-01-08 14:33:53 GMT 48.190224 1.696665 16,575 52 392 -2944
2019-01-08 14:33:49 GMT 48.183662 1.683655 16,800 52 395 -1920
2019-01-08 14:33:43 GMT 48.180122 1.676644 16,925 52 398 -2432
2019-01-08 14:33:38 GMT 48.174957 1.666612 17,100 52 400 -2816
2019-01-08 14:33:35 GMT 48.170929 1.658654 17,275 52 400 -3200
2019-01-08 14:33:30 GMT 48.165985 1.649006 17,525 52 400 -3200
2019-01-08 14:33:27 GMT 48.162155 1.641516 17,925 52 403 -2432
2019-01-08 14:33:24 GMT 48.158989 1.635343 17,800 52 403 -2624
2019-01-08 14:33:21 GMT 48.156288 1.629991 17,925 52 403 -2496
2019-01-08 14:33:17 GMT 48.151062 1.619797 18,100 52 405 -1792
2019-01-08 14:33:12 GMT 48.144653 1.607368 18,225 52 408 -1024
2019-01-08 14:33:07 GMT 48.139664 1.597481 18,300 52 408 -1024
2019-01-08 14:33:01 GMT 48.132751 1.584091 18,425 52 408 -1024
2019-01-08 14:32:57 GMT 48.127472 1.573792 18,475 52 409 -1024
2019-01-08 14:32:54 GMT 48.123138 1.565208 18,550 52 409 -960
2019-01-08 14:32:49 GMT 48.119186 1.557594 18,600 52 410 -960
2019-01-08 14:32:46 GMT 48.115974 1.551326 18,650 52 410 -1024
2019-01-08 14:32:42 GMT 48.111145 1.541862 18,700 52 410 -1024
2019-01-08 14:32:39 GMT 48.107941 1.535545 18,750 52 410 -1024
2019-01-08 14:32:36 GMT 48.104233 1.528336 18,850 52 412 -1024
2019-01-08 14:32:33 GMT 48.100067 1.520233 18,875 52 411 -1024
2019-01-08 14:32:29 GMT 48.095901 1.512062 18,925 52 412 -1024
2019-01-08 14:32:25 GMT 48.091534 1.503507 19,125 52 412 -1024
2019-01-08 14:32:22 GMT 48.088074 1.496681 19,050 52 412 -1024
2019-01-08 14:32:19 GMT 48.084133 1.489000 19,125 52 412 -1088
2019-01-08 14:32:15 GMT 48.079525 1.479985 19,225 52 412 -1088
2019-01-08 14:32:12 GMT 48.075798 1.472731 19,225 52 413 -1088
2019-01-08 14:32:08 GMT 48.071869 1.465027 19,325 52 413 -1024
2019-01-08 14:32:05 GMT 48.067932 1.457308 19,375 52 413 -1024
2019-01-08 14:32:02 GMT 48.064453 1.450539 19,400 52 413 -1024
2019-01-08 14:31:58 GMT 48.055874 1.433786 19,575 52 413 -1024
2019-01-08 14:31:54 GMT 48.055874 1.433786 19,725 52 415 -1024
2019-01-08 14:31:51 GMT 48.052414 1.426987 19,575 52 414 -960
2019-01-08 14:31:48 GMT 48.047497 1.417448 19,650 52 415 -1024
2019-01-08 14:31:45 GMT 48.040283 1.403297 19,750 52 417 -1024
2019-01-08 14:31:42 GMT 48.040283 1.403297 19,750 52 416 -1024
2019-01-08 14:31:35 GMT 48.028271 1.380052 20,050 52 417 -1152
2019-01-08 14:31:31 GMT 48.028271 1.380052 19,925 52 417 -1088
2019-01-08 14:31:24 GMT 48.019547 1.363129 20,100 52 418 -1088
2019-01-08 14:31:21 GMT 48.013870 1.352142 20,150 52 417 -1024
2019-01-08 14:31:15 GMT 48.009369 1.343501 20,250 52 417 -1024
2019-01-08 14:31:12 GMT 48.006531 1.338008 20,250 52 417 -1024
2019-01-08 14:31:09 GMT 48.002975 1.331200 20,300 52 418 -1024
2019-01-08 14:31:04 GMT 47.997032 1.319838 20,400 52 417 -1024
2019-01-08 14:31:01 GMT 47.993500 1.313004 20,450 52 417 -1024
2019-01-08 14:30:55 GMT 47.984280 1.295260 20,600 52 417 -1024
2019-01-08 14:30:52 GMT 47.982147 1.291168 20,725 52 417 -1024
2019-01-08 14:30:49 GMT 47.979080 1.285263 20,650 52 417 -1024
2019-01-08 14:30:44 GMT 47.967567 1.262935 20,775 52 418 -1024
2019-01-08 14:30:39 GMT 47.967567 1.262935 20,825 52 418 -1024
2019-01-08 14:30:34 GMT 47.961227 1.250587 20,925 52 418 -1024
2019-01-08 14:30:31 GMT 47.953674 1.235893 21,025 52 418 -960
2019-01-08 14:30:23 GMT 47.949177 1.227229 21,075 52 419 -1088
2019-01-08 14:30:19 GMT 47.941864 1.213097 21,125 52 418 -1024
2019-01-08 14:30:13 GMT 47.935684 1.201286 21,275 52 419 -1024
2019-01-08 14:30:10 GMT 47.932343 1.194901 21,550 52 419 -1024
2019-01-08 14:30:04 GMT 47.925705 1.182129 21,400 52 419 -1024
2019-01-08 14:30:01 GMT 47.923107 1.177157 21,450 52 419 -1024
2019-01-08 14:29:58 GMT 47.917381 1.166171 21,525 52 419 -1024
2019-01-08 14:29:54 GMT 47.913803 1.159332 21,575 52 420 -1024
2019-01-08 14:29:51 GMT 47.910507 1.152946 21,625 52 421 -1024
2019-01-08 14:29:48 GMT 47.901180 1.135113 21,700 52 421 -1024
2019-01-08 14:29:45 GMT 47.901180 1.135113 21,750 52 422 -1024
2019-01-08 14:29:41 GMT 47.897877 1.128634 21,950 53 424 -1024
2019-01-08 14:29:38 GMT 47.894348 1.121635 21,850 53 424 -1024
2019-01-08 14:29:33 GMT 47.889313 1.111198 22,100 55 428 -1024
2019-01-08 14:29:30 GMT 47.885742 1.103371 21,975 56 429 -1024
2019-01-08 14:29:27 GMT 47.882935 1.096943 22,125 58 432 -1024
2019-01-08 14:29:22 GMT 47.877686 1.084351 22,125 59 433 -1024
2019-01-08 14:29:15 GMT 47.869446 1.062447 22,275 62 438 -1024
2019-01-08 14:29:12 GMT 47.867569 1.057091 22,300 62 438 -1024
2019-01-08 14:29:09 GMT 47.864777 1.049053 22,375 62 439 -1024
2019-01-08 14:29:06 GMT 47.861843 1.040462 22,375 62 439 -1024
2019-01-08 14:29:02 GMT 47.858322 1.030243 22,475 62 440 -1088
2019-01-08 14:28:55 GMT 47.851837 1.011376 22,575 62 441 -1024
2019-01-08 14:28:51 GMT 47.848110 1.000601 22,650 62 441 -1088
2019-01-08 14:28:45 GMT 47.842525 0.984403 22,775 62 442 -1088
2019-01-08 14:28:41 GMT 47.838757 0.973558 22,825 62 443 -1152
2019-01-08 14:28:35 GMT 47.833168 0.957289 23,200 62 445 -1088
2019-01-08 14:28:32 GMT 47.827908 0.942078 23,050 62 445 -1024
2019-01-08 14:28:26 GMT 47.822647 0.926725 23,250 62 452 -1024
2019-01-08 14:28:23 GMT 47.822647 0.926725 23,150 62 447 -960
2019-01-08 14:28:19 GMT 47.817341 0.911443 23,225 62 449 -1024
2019-01-08 14:28:14 GMT 47.813896 0.901583 23,350 62 449 -960
2019-01-08 14:28:11 GMT 47.809891 0.890099 23,350 62 450 -1024
2019-01-08 14:28:07 GMT 47.806633 0.880737 23,475 62 450 -1024
2019-01-08 14:28:03 GMT 47.802612 0.869225 23,500 62 450 -1024
2019-01-08 14:28:00 GMT 47.799957 0.861534 23,575 62 450 -1024
2019-01-08 14:27:54 GMT 47.793972 0.844539 23,650 62 450 -1024
2019-01-08 14:27:48 GMT 47.787827 0.826932 23,750 62 452 -1024
2019-01-08 14:27:45 GMT 47.784336 0.817073 23,775 62 452 -1024
2019-01-08 14:27:42 GMT 47.782429 0.811509 23,850 62 453 -1024
2019-01-08 14:27:38 GMT 47.779308 0.802706 23,900 62 453 -1024
2019-01-08 14:27:34 GMT 47.771954 0.781720 24,025 62 455 -1088
2019-01-08 14:27:28 GMT 47.769627 0.775100 24,075 62 455 -1024
2019-01-08 14:27:25 GMT 47.766132 0.765099 24,125 62 456 -1024
2019-01-08 14:27:21 GMT 47.762272 0.753972 24,225 62 457 -1024
2019-01-08 14:27:18 GMT 47.759720 0.746796 24,225 62 457 -1024
2019-01-08 14:27:12 GMT 47.753220 0.729218 24,450 59 454 -1024
2019-01-08 14:27:07 GMT 47.748505 0.717476 24,400 59 454 -1024
2019-01-08 14:27:04 GMT 47.743790 0.706435 24,500 54 451 -1024
2019-01-08 14:27:01 GMT 47.740768 0.699760 24,650 54 452 -1024
2019-01-08 14:26:58 GMT 47.737427 0.692619 24,600 54 451 -1024
2019-01-08 14:26:51 GMT 47.727493 0.672707 24,750 50 449 -960
2019-01-08 14:26:47 GMT 47.724380 0.666939 24,775 50 449 -1024
2019-01-08 14:26:44 GMT 47.718521 0.656502 24,850 48 448 -1024
2019-01-08 14:26:38 GMT 47.711109 0.644109 24,950 45 445 -1024
2019-01-08 14:26:35 GMT 47.707756 0.638756 24,975 46 446 -1088
2019-01-08 14:26:30 GMT 47.699657 0.626643 25,100 43 442 -1088
2019-01-08 14:26:27 GMT 47.695816 0.621140 25,125 43 442 -1024
2019-01-08 14:26:23 GMT 47.688438 0.610657 25,225 43 442 -1088
2019-01-08 14:26:20 GMT 47.684647 0.605141 25,275 43 441 -1088
2019-01-08 14:26:17 GMT 47.681122 0.600128 25,325 43 441 -1088
2019-01-08 14:26:13 GMT 47.674622 0.590927 25,375 43 440 -1152
2019-01-08 14:26:09 GMT 47.669071 0.582980 25,450 43 441 -1088
2019-01-08 14:26:06 GMT 47.665535 0.577979 25,500 43 442 -1024
2019-01-08 14:26:03 GMT 47.660522 0.570877 25,675 43 443 -896
2019-01-08 14:26:00 GMT 47.656132 0.564528 25,625 43 443 -960
2019-01-08 14:25:57 GMT 47.651382 0.557767 25,625 43 443 -960
2019-01-08 14:25:54 GMT 47.646973 0.551445 25,700 44 444 -1088
2019-01-08 14:25:50 GMT 47.641113 0.542931 25,875 44 444 -1088
2019-01-08 14:25:47 GMT 47.636993 0.537025 25,825 44 444 -1088
2019-01-08 14:25:44 GMT 47.632622 0.530583 25,875 44 444 -1088
2019-01-08 14:25:40 GMT 47.624989 0.519527 25,950 44 444 -1088
2019-01-08 14:25:36 GMT 47.620285 0.512766 26,050 44 446 -1024
2019-01-08 14:25:28 GMT 47.608749 0.496170 26,125 44 446 -1024
2019-01-08 14:25:24 GMT 47.603439 0.488480 26,850 44 443 -1024
2019-01-08 14:25:17 GMT 47.593414 0.473991 26,300 44 446 -960
2019-01-08 14:25:14 GMT 47.587791 0.465933 26,350 44 446 -1024
2019-01-08 14:25:08 GMT 47.578899 0.453116 26,475 44 446 -1024
2019-01-08 14:25:05 GMT 47.574463 0.446800 26,575 44 445 -1024
2019-01-08 14:24:57 GMT 47.563202 0.430664 26,650 44 444 -1024
2019-01-08 14:24:54 GMT 47.558231 0.423467 26,725 44 443 -1024
2019-01-08 14:24:51 GMT 47.554089 0.417621 26,750 44 443 -1024
2019-01-08 14:24:47 GMT 47.548828 0.410015 26,825 44 443 -1024
2019-01-08 14:24:44 GMT 47.543243 0.401962 26,875 44 443 -1024
2019-01-08 14:24:41 GMT 47.539719 0.396950 26,900 44 443 -1024
2019-01-08 14:24:36 GMT 47.532669 0.386856 27,000 44 442 -1024
2019-01-08 14:24:33 GMT 47.525925 0.377127 27,075 44 442 -1024
2019-01-08 14:24:25 GMT 47.515915 0.362831 27,250 44 442 -1024
2019-01-08 14:24:22 GMT 47.511818 0.356985 27,250 44 443 -960
2019-01-08 14:24:16 GMT 47.502090 0.343048 27,325 44 444 -1024
2019-01-08 14:24:10 GMT 47.493851 0.331306 27,425 44 444 -1088
2019-01-08 14:24:05 GMT 47.486801 0.321144 27,500 44 443 -1152
2019-01-08 14:24:01 GMT 47.480629 0.312265 27,675 44 447 -1216
2019-01-08 14:23:55 GMT 47.471466 0.299171 27,700 44 446 -1280
2019-01-08 14:23:50 GMT 47.464966 0.289833 27,800 44 449 -1216
2019-01-08 14:23:45 GMT 47.455994 0.277061 27,925 44 450 -960
2019-01-08 14:23:40 GMT 47.440735 0.255291 28,000 44 450 0
2019-01-08 14:23:34 GMT 47.440735 0.255291 28,000 44 451 0
2019-01-08 14:23:29 GMT 47.433517 0.245009 28,000 44 451 0
2019-01-08 14:23:26 GMT 47.427559 0.236488 28,000 44 450 0
2019-01-08 14:23:23 GMT 47.423927 0.231347 28,000 44 450 0
2019-01-08 14:23:20 GMT 47.417969 0.222825 28,000 44 449 0
2019-01-08 14:23:14 GMT 47.409302 0.210457 28,000 44 449 -64
2019-01-08 14:23:09 GMT 47.403305 0.202011 28,000 44 449 0
2019-01-08 14:23:06 GMT 47.399441 0.196416 28,000 44 449 64
2019-01-08 14:23:03 GMT 47.392834 0.187120 28,000 44 449 64
2019-01-08 14:22:59 GMT 47.388382 0.180725 28,000 43 449 0
2019-01-08 14:22:56 GMT 47.383575 0.173927 28,000 43 449 -64
2019-01-08 14:22:52 GMT 47.371323 0.156555 28,000 43 449 -64
2019-01-08 14:22:48 GMT 47.371323 0.156555 28,000 43 449 -64
2019-01-08 14:22:44 GMT 47.365631 0.148453 28,000 43 449 0
2019-01-08 14:22:41 GMT 47.361420 0.142548 28,000 43 449 0
2019-01-08 14:22:38 GMT 47.355423 0.134033 28,000 43 449 0
2019-01-08 14:22:34 GMT 47.350937 0.127681 28,000 43 449 0
2019-01-08 14:22:31 GMT 47.345856 0.120506 28,000 43 449 -64
2019-01-08 14:22:27 GMT 47.340179 0.112469 28,000 43 448 0
2019-01-08 14:22:24 GMT 47.335384 0.105708 28,000 44 449 0
2019-01-08 14:22:21 GMT 47.329426 0.097187 28,000 44 449 -64
2019-01-08 14:22:18 GMT 47.326447 0.092961 28,000 44 449 -64
2019-01-08 14:22:15 GMT 47.323151 0.088303 28,000 44 449 -64
2019-01-08 14:22:12 GMT 47.317200 0.079857 28,000 44 448 -128
2019-01-08 14:22:07 GMT 47.310341 0.070143 28,025 44 448 -128
2019-01-08 14:22:04 GMT 47.306198 0.064157 28,025 44 447 -128
2019-01-08 14:22:01 GMT 47.301132 0.056992 28,025 44 447 -64
2019-01-08 14:21:57 GMT 47.295490 0.048946 28,025 44 448 128
2019-01-08 14:21:54 GMT 47.291016 0.042572 28,000 44 449 192
2019-01-08 14:21:51 GMT 47.286255 0.035706 27,975 44 451 64
2019-01-08 14:21:48 GMT 47.282684 0.030624 27,975 44 454 -128
2019-01-08 14:21:44 GMT 47.269653 0.012043 28,000 44 457 0
2019-01-08 14:21:40 GMT 47.269653 0.012043 28,000 44 457 -64
2019-01-08 14:21:35 GMT 47.261444 0.000412 28,000 44 457 0
2019-01-08 14:21:32 GMT 47.257504 -0.005211 28,000 44 457 0
2019-01-08 14:21:29 GMT 47.253826 -0.010353 28,000 44 457 0
2019-01-08 14:21:25 GMT 47.247776 -0.019015 28,000 44 457 0
2019-01-08 14:21:22 GMT 47.242584 -0.026367 28,000 44 457 -64
2019-01-08 14:21:19 GMT 47.237732 -0.033234 28,000 44 456 -64
2019-01-08 14:21:15 GMT 47.231689 -0.041885 28,000 44 456 -64
2019-01-08 14:21:11 GMT 47.222263 -0.055284 28,000 44 456 0
2019-01-08 14:21:08 GMT 47.222263 -0.055284 28,000 44 456 0
2019-01-08 14:21:04 GMT 47.210159 -0.072468 28,000 44 456 64
2019-01-08 14:20:54 GMT 47.200745 -0.085831 28,000 44 456 64
2019-01-08 14:20:51 GMT 47.194984 -0.094018 28,000 44 456 0
2019-01-08 14:20:48 GMT 47.190746 -0.100074 28,000 44 456 0
2019-01-08 14:20:43 GMT 47.183167 -0.110825 28,000 44 456 0
2019-01-08 14:20:40 GMT 47.179855 -0.115568 28,000 44 456 -64
2019-01-08 14:20:36 GMT 47.173462 -0.124557 28,000 44 456 -64
2019-01-08 14:20:32 GMT 47.162910 -0.139653 28,000 44 455 0
2019-01-08 14:20:26 GMT 47.158356 -0.146049 28,000 44 455 0
2019-01-08 14:20:23 GMT 47.153229 -0.153386 28,000 44 455 0
2019-01-08 14:20:20 GMT 47.148697 -0.159851 28,000 44 455 -64
2019-01-08 14:20:13 GMT 47.138992 -0.173515 28,000 44 454 0
2019-01-08 14:20:10 GMT 47.132652 -0.182542 28,000 44 454 0
2019-01-08 14:20:06 GMT 47.127502 -0.189789 28,000 44 454 0
2019-01-08 14:20:02 GMT 47.121460 -0.198303 28,000 43 454 0
2019-01-08 14:19:59 GMT 47.116653 -0.205170 28,000 43 453 0
2019-01-08 14:19:55 GMT 47.110912 -0.213247 28,000 43 454 0
2019-01-08 14:19:51 GMT 47.105118 -0.221306 28,000 43 452 0
2019-01-08 14:19:48 GMT 47.101181 -0.226840 28,000 43 453 0
2019-01-08 14:19:41 GMT 47.088776 -0.244171 28,000 43 452 0
2019-01-08 14:19:38 GMT 47.085754 -0.248428 28,000 43 452 -64
2019-01-08 14:19:34 GMT 47.079117 -0.257698 28,000 43 452 -64
2019-01-08 14:19:29 GMT 47.071529 -0.268250 28,000 43 452 -64
2019-01-08 14:19:24 GMT 47.063965 -0.278709 28,000 43 452 0
2019-01-08 14:19:20 GMT 47.056351 -0.289166 28,000 43 450 0
2019-01-08 14:19:17 GMT 47.053326 -0.293321 28,000 43 450 0
2019-01-08 14:19:14 GMT 47.048439 -0.300011 28,000 42 449 0
2019-01-08 14:19:10 GMT 47.042679 -0.307892 28,000 43 449 0
2019-01-08 14:19:07 GMT 47.038708 -0.313322 28,000 43 449 0
2019-01-08 14:18:59 GMT 47.025951 -0.330717 28,000 42 449 0
2019-01-08 14:18:56 GMT 47.021988 -0.336113 28,000 42 449 0
2019-01-08 14:18:49 GMT 47.009521 -0.353041 28,000 43 449 0
2019-01-08 14:18:46 GMT 47.006149 -0.357605 28,000 43 449 0
2019-01-08 14:18:43 GMT 46.999790 -0.366352 28,000 43 449 0
2019-01-08 14:18:38 GMT 46.994064 -0.374222 28,000 43 449 0
2019-01-08 14:18:35 GMT 46.989502 -0.380507 28,000 43 449 0
2019-01-08 14:18:32 GMT 46.984104 -0.388043 28,000 43 449 0
2019-01-08 14:18:28 GMT 46.977768 -0.396812 28,000 43 449 0
2019-01-08 14:18:25 GMT 46.975025 -0.400578 28,000 43 449 0
2019-01-08 14:18:20 GMT 46.967812 -0.410649 28,000 43 449 -64
2019-01-08 14:18:15 GMT 46.959988 -0.421495 28,000 43 449 -64
2019-01-08 14:18:09 GMT 46.951263 -0.433617 28,000 43 449 -64
2019-01-08 14:18:06 GMT 46.946720 -0.439876 28,000 43 449 0
2019-01-08 14:18:03 GMT 46.935608 -0.455383 28,000 43 449 0
2019-01-08 14:18:00 GMT 46.935608 -0.455383 28,000 43 449 0
2019-01-08 14:17:56 GMT 46.930161 -0.462936 28,000 43 449 -64
2019-01-08 14:17:53 GMT 46.925949 -0.468773 28,000 43 449 -64
2019-01-08 14:17:49 GMT 46.919357 -0.477974 28,000 43 449 -64
2019-01-08 14:17:44 GMT 46.912720 -0.487175 28,000 43 449 -64
2019-01-08 14:17:41 GMT 46.909103 -0.492188 28,000 43 449 0
2019-01-08 14:17:38 GMT 46.902512 -0.501320 28,000 43 449 0
2019-01-08 14:17:33 GMT 46.896469 -0.509697 28,000 43 449 0
2019-01-08 14:17:30 GMT 46.891373 -0.516780 28,000 43 449 0
2019-01-08 14:17:25 GMT 46.883835 -0.527206 28,000 43 449 0
2019-01-08 14:17:22 GMT 46.880524 -0.531781 28,000 43 449 0
2019-01-08 14:17:19 GMT 46.874817 -0.539703 28,000 43 449 0
2019-01-08 14:17:13 GMT 46.860088 -0.560165 28,000 43 449 0
2019-01-08 14:17:10 GMT 46.860088 -0.560165 28,000 43 449 0
2019-01-08 14:17:04 GMT 46.853165 -0.569681 28,000 43 449 0
2019-01-08 14:17:01 GMT 46.848637 -0.575958 28,000 43 449 0
2019-01-08 14:16:54 GMT 46.837788 -0.590927 28,000 43 448 -64
2019-01-08 14:16:51 GMT 46.832993 -0.597519 28,000 43 448 0
2019-01-08 14:16:46 GMT 46.823685 -0.610411 28,000 43 448 0
2019-01-08 14:16:41 GMT 46.818562 -0.617500 28,000 43 448 0
2019-01-08 14:16:35 GMT 46.807110 -0.633224 28,000 43 448 -64
2019-01-08 14:16:31 GMT 46.802876 -0.639061 28,000 43 448 -64
2019-01-08 14:16:23 GMT 46.786880 -0.660988 28,000 43 448 0
2019-01-08 14:16:13 GMT 46.770893 -0.682938 28,000 43 449 0
2019-01-08 14:16:00 GMT 46.754288 -0.705738 28,000 43 449 0
2019-01-08 14:15:49 GMT 46.739517 -0.725990 28,000 43 449 -64
2019-01-08 14:15:44 GMT 46.731949 -0.736352 28,000 43 449 0
2019-01-08 14:15:41 GMT 46.727692 -0.742113 28,000 43 448 0
2019-01-08 14:15:38 GMT 46.723179 -0.748375 28,000 43 448 0
2019-01-08 14:15:31 GMT 46.711990 -0.763617 28,000 43 448 0
2019-01-08 14:15:28 GMT 46.707733 -0.769378 28,000 43 448 0
2019-01-08 14:15:25 GMT 46.701691 -0.777685 28,000 43 449 0
2019-01-08 14:15:18 GMT 46.692032 -0.790882 28,000 43 449 0
2019-01-08 14:15:14 GMT 46.686913 -0.797882 28,000 43 449 0
2019-01-08 14:15:06 GMT 46.669598 -0.822327 28,000 46 452 0
2019-01-08 14:15:00 GMT 46.665546 -0.828438 28,000 46 451 -64
2019-01-08 14:14:56 GMT 46.648499 -0.854388 28,000 46 452 0
2019-01-08 14:14:48 GMT 46.648499 -0.854388 28,000 46 452 0
2019-01-08 14:14:44 GMT 46.643017 -0.862701 28,000 46 452 0
2019-01-08 14:14:39 GMT 46.635269 -0.874619 28,000 46 452 0
2019-01-08 14:14:36 GMT 46.629456 -0.883395 28,000 46 452 0
2019-01-08 14:14:29 GMT 46.620804 -0.896592 28,000 46 452 0
2019-01-08 14:14:26 GMT 46.616482 -0.903145 28,000 46 452 0
2019-01-08 14:14:18 GMT 46.605240 -0.920306 28,000 46 452 0
2019-01-08 14:14:12 GMT 46.596588 -0.933503 28,000 46 452 0
2019-01-08 14:14:05 GMT 46.586452 -0.948807 28,000 46 451 0
2019-01-08 14:14:01 GMT 46.579517 -0.959381 28,000 46 451 0
2019-01-08 14:13:57 GMT 46.575466 -0.965492 28,000 46 451 0
2019-01-08 14:13:54 GMT 46.569443 -0.974702 28,000 46 451 0
2019-01-08 14:13:51 GMT 46.567108 -0.978185 28,000 46 451 0
2019-01-08 14:13:47 GMT 46.560196 -0.988703 28,000 46 451 0
2019-01-08 14:13:42 GMT 46.548931 -1.005798 28,000 46 451 0
2019-01-08 14:13:39 GMT 46.548931 -1.005798 28,000 46 451 0
2019-01-08 14:13:34 GMT 46.542557 -1.015411 28,000 46 451 0
2019-01-08 14:13:31 GMT 46.537079 -1.023671 28,000 46 451 0
2019-01-08 14:13:28 GMT 46.533337 -1.029350 28,000 46 451 0
2019-01-08 14:13:24 GMT 46.527283 -1.038543 28,000 46 451 0
2019-01-08 14:13:20 GMT 46.521793 -1.046791 28,000 46 451 0
2019-01-08 14:13:16 GMT 46.514297 -1.058189 28,000 46 451 0
2019-01-08 14:13:11 GMT 46.509083 -1.066017 28,000 46 451 0
2019-01-08 14:13:07 GMT 46.495258 -1.086960 28,000 46 451 0
2019-01-08 14:13:03 GMT 46.495258 -1.086960 28,000 46 451 0
2019-01-08 14:12:59 GMT 46.491814 -1.092178 28,000 46 450 0
2019-01-08 14:12:55 GMT 46.484318 -1.103508 28,000 46 450 0
2019-01-08 14:12:48 GMT 46.476265 -1.115662 28,000 46 450 0
2019-01-08 14:12:42 GMT 46.461834 -1.137428 28,000 46 450 0
2019-01-08 14:12:39 GMT 46.461834 -1.137428 28,000 46 450 0
2019-01-08 14:12:32 GMT 46.452347 -1.151756 28,000 46 450 -64
2019-01-08 14:12:29 GMT 46.447723 -1.158656 28,000 46 450 -64
2019-01-08 14:12:24 GMT 46.440514 -1.169563 28,000 46 450 0
2019-01-08 14:12:21 GMT 46.437332 -1.174331 28,000 46 450 0
2019-01-08 14:12:18 GMT 46.431564 -1.182973 28,000 46 450 0
2019-01-08 14:12:14 GMT 46.425522 -1.192085 28,000 46 449 0
2019-01-08 14:12:11 GMT 46.421219 -1.198582 28,000 46 449 0
2019-01-08 14:12:08 GMT 46.417469 -1.204239 28,000 45 447 0
2019-01-08 14:12:05 GMT 46.411743 -1.212891 28,000 46 449 0
2019-01-08 14:12:01 GMT 46.407394 -1.219348 28,000 46 449 0
2019-01-08 14:11:58 GMT 46.402805 -1.226280 28,000 46 449 0
2019-01-08 14:11:55 GMT 46.399082 -1.231911 28,000 46 449 0
2019-01-08 14:11:52 GMT 46.394760 -1.238441 28,000 46 449 0
2019-01-08 14:11:47 GMT 46.387253 -1.249628 28,000 46 448 0
2019-01-08 14:11:39 GMT 46.376644 -1.265625 28,000 46 448 0
2019-01-08 14:11:35 GMT 46.370041 -1.275553 28,000 46 448 0
2019-01-08 14:11:31 GMT 46.364540 -1.283684 28,000 46 448 0
2019-01-08 14:11:25 GMT 46.355667 -1.297057 28,000 45 447 0
2019-01-08 14:11:21 GMT 46.349037 -1.306961 28,000 45 447 0
2019-01-08 14:11:14 GMT 46.340103 -1.320302 28,000 45 447 0
2019-01-08 14:11:09 GMT 46.333786 -1.329748 28,000 45 447 0
2019-01-08 14:11:03 GMT 46.324585 -1.343481 28,000 45 447 0
2019-01-08 14:10:58 GMT 46.317673 -1.353797 28,000 45 447 -64
2019-01-08 14:10:55 GMT 46.312214 -1.361961 28,000 45 446 0
2019-01-08 14:10:52 GMT 46.308472 -1.367530 28,000 45 446 0
2019-01-08 14:10:48 GMT 46.294098 -1.388900 28,000 45 446 0
2019-01-08 14:10:42 GMT 46.289776 -1.395332 28,000 45 446 0
2019-01-08 14:10:39 GMT 46.289776 -1.395332 28,000 45 446 0
2019-01-08 14:10:36 GMT 46.285492 -1.401762 28,000 45 446 0
2019-01-08 14:10:29 GMT 46.275391 -1.416756 28,000 45 446 0
2019-01-08 14:10:25 GMT 46.269379 -1.425744 28,000 45 446 0
2019-01-08 14:10:20 GMT 46.256447 -1.444977 28,000 45 446 0
2019-01-08 14:10:16 GMT 46.256447 -1.444977 28,000 45 447 0
2019-01-08 14:10:11 GMT 46.250381 -1.454014 28,000 45 447 0
2019-01-08 14:10:08 GMT 46.245255 -1.461718 28,000 45 447 0
2019-01-08 14:10:03 GMT 46.237499 -1.473267 28,000 45 447 0
2019-01-08 14:09:58 GMT 46.230881 -1.483154 28,000 45 447 -64
2019-01-08 14:09:53 GMT 46.223419 -1.494275 28,000 45 447 0
2019-01-08 14:09:47 GMT 46.215958 -1.505462 28,000 45 447 0
2019-01-08 14:09:42 GMT 46.208775 -1.516182 28,000 45 447 0
2019-01-08 14:09:37 GMT 46.200989 -1.527703 28,000 45 447 0
2019-01-08 14:09:32 GMT 46.194077 -1.538019 28,000 45 447 0
2019-01-08 14:09:26 GMT 46.185734 -1.550446 28,000 45 448 0
2019-01-08 14:09:23 GMT 46.179703 -1.559389 28,000 45 448 0
2019-01-08 14:09:18 GMT 46.174232 -1.567543 28,000 45 448 0
2019-01-08 14:09:15 GMT 46.168167 -1.576538 28,000 45 448 0
2019-01-08 14:09:12 GMT 46.163544 -1.583371 28,000 45 449 0
2019-01-08 14:09:06 GMT 46.155704 -1.594940 28,000 45 449 0
2019-01-08 14:09:00 GMT 46.147045 -1.607780 28,000 45 449 0
2019-01-08 14:08:56 GMT 46.141273 -1.616364 28,000 45 449 0
2019-01-08 14:08:53 GMT 46.135803 -1.624436 28,000 45 449 0
2019-01-08 14:08:50 GMT 46.132614 -1.629135 28,000 45 449 0
2019-01-08 14:08:46 GMT 46.126797 -1.637718 28,000 45 449 0
2019-01-08 14:08:43 GMT 46.122482 -1.644131 28,000 45 449 0
2019-01-08 14:08:40 GMT 46.116669 -1.652705 28,000 45 449 0
2019-01-08 14:08:34 GMT 46.109432 -1.663399 28,000 45 449 0
2019-01-08 14:08:28 GMT 46.099869 -1.677559 28,000 45 450 64
2019-01-08 14:08:23 GMT 46.094398 -1.685715 28,000 45 450 0
2019-01-08 14:08:20 GMT 46.089184 -1.693405 28,000 45 450 0
2019-01-08 14:08:17 GMT 46.084808 -1.699866 28,000 45 450 -64
2019-01-08 14:08:12 GMT 46.077545 -1.710571 28,000 45 450 0
2019-01-08 14:08:07 GMT 46.070297 -1.721303 28,000 45 451 -64
2019-01-08 14:08:03 GMT 46.064743 -1.729454 28,025 45 451 -960
2019-01-08 14:07:56 GMT 46.049614 -1.751770 28,150 45 451 -960
2019-01-08 14:07:52 GMT 46.049614 -1.751770 28,225 45 451 -960
2019-01-08 14:07:48 GMT 46.035919 -1.771947 28,350 45 449 -960
2019-01-08 14:07:45 GMT 46.035919 -1.771947 28,300 45 451 -960
2019-01-08 14:07:41 GMT 46.032440 -1.777106 28,300 45 451 -960
2019-01-08 14:07:35 GMT 46.024010 -1.789536 28,425 45 451 -960
2019-01-08 14:07:31 GMT 46.018749 -1.797226 28,500 45 451 -960
2019-01-08 14:07:25 GMT 46.008274 -1.812607 28,600 45 450 -960
2019-01-08 14:07:20 GMT 46.002136 -1.821587 28,800 45 450 -960
2019-01-08 14:07:14 GMT 45.992844 -1.835253 28,775 45 449 -960
2019-01-08 14:07:10 GMT 45.988220 -1.842086 28,825 45 449 -1024
2019-01-08 14:07:07 GMT 45.982670 -1.850166 28,875 45 449 -960
2019-01-08 14:07:02 GMT 45.975998 -1.859972 29,000 45 449 -960
2019-01-08 14:06:58 GMT 45.969917 -1.868912 29,025 45 449 -960
2019-01-08 14:06:50 GMT 45.959198 -1.884691 29,150 45 449 -960
2019-01-08 14:06:47 GMT 45.953384 -1.893199 29,200 45 449 -1024
2019-01-08 14:06:39 GMT 45.943497 -1.907669 29,325 45 449 -960
2019-01-08 14:06:35 GMT 45.934490 -1.920822 29,425 45 449 -960
2019-01-08 14:06:29 GMT 45.928391 -1.929775 29,500 45 450 -1024
2019-01-08 14:06:25 GMT 45.920242 -1.941700 29,575 45 450 -1024
2019-01-08 14:06:17 GMT 45.910656 -1.955772 29,675 45 450 -960
2019-01-08 14:06:13 GMT 45.901657 -1.969031 29,775 45 449 -960
2019-01-08 14:06:08 GMT 45.893803 -1.980492 29,875 45 449 -960
2019-01-08 14:06:02 GMT 45.886822 -1.990723 29,975 45 449 -960
2019-01-08 14:05:57 GMT 45.870525 -2.014481 30,050 45 449 -960
2019-01-08 14:05:51 GMT 45.870525 -2.014481 30,125 45 449 0
2019-01-08 14:05:46 GMT 45.866428 -2.020386 30,175 45 449 -960
2019-01-08 14:05:39 GMT 45.853912 -2.038634 30,350 45 446 -960
2019-01-08 14:05:35 GMT 45.849579 -2.044968 30,350 45 449 -960
2019-01-08 14:05:28 GMT 45.837334 -2.062752 30,500 45 449 -960
2019-01-08 14:05:25 GMT 45.835876 -2.064894 30,500 45 449 -960
2019-01-08 14:05:21 GMT 45.827774 -2.076751 30,600 45 449 -960
2019-01-08 14:05:16 GMT 45.821960 -2.085192 30,700 45 448 -960
2019-01-08 14:05:13 GMT 45.818436 -2.090283 30,700 45 448 -960
2019-01-08 14:05:06 GMT 45.807121 -2.106766 30,850 45 446 -960
2019-01-08 14:05:02 GMT 45.802467 -2.113495 30,925 45 445 -960
2019-01-08 14:04:52 GMT 45.787125 -2.135769 31,050 45 446 -960
2019-01-08 14:04:41 GMT 45.768299 -2.163139 31,250 45 444 -960
2019-01-08 14:04:36 GMT 45.764557 -2.168594 31,275 45 445 -960
2019-01-08 14:04:33 GMT 45.752705 -2.185730 31,425 45 444 -960
2019-01-08 14:04:29 GMT 45.752705 -2.185730 31,425 45 445 -960
2019-01-08 14:04:23 GMT 45.745468 -2.196194 31,500 45 444 -960
2019-01-08 14:04:20 GMT 45.739994 -2.204132 31,625 45 439 -960
2019-01-08 14:04:13 GMT 45.730499 -2.217831 31,675 45 441 -960
2019-01-08 14:04:09 GMT 45.723633 -2.227813 31,750 45 441 -960
2019-01-08 14:04:06 GMT 45.720200 -2.232770 31,775 45 440 -960
2019-01-08 14:04:00 GMT 45.713085 -2.243134 31,850 45 439 -960
2019-01-08 14:03:55 GMT 45.703403 -2.257141 31,975 45 438 -1024
2019-01-08 14:03:50 GMT 45.697678 -2.265381 32,025 45 438 -1024
2019-01-08 14:03:47 GMT 45.693420 -2.271557 32,125 45 437 -1024
2019-01-08 14:03:44 GMT 45.689159 -2.277672 32,125 45 437 -1024
2019-01-08 14:03:39 GMT 45.682922 -2.286736 32,200 45 437 -960
2019-01-08 14:03:35 GMT 45.676392 -2.296210 32,275 45 437 -960
2019-01-08 14:03:32 GMT 45.671005 -2.303970 32,825 45 437 -1024
2019-01-08 14:03:29 GMT 45.668163 -2.308090 32,375 45 438 -960
2019-01-08 14:03:24 GMT 45.661606 -2.317579 32,450 45 438 -960
2019-01-08 14:03:18 GMT 45.652802 -2.330269 32,550 45 438 -960
2019-01-08 14:03:15 GMT 45.647121 -2.338509 32,600 45 438 -960
2019-01-08 14:03:10 GMT 45.640839 -2.347504 32,825 45 438 -960
2019-01-08 14:03:07 GMT 45.637440 -2.352448 32,725 45 438 -960
2019-01-08 14:03:04 GMT 45.631439 -2.361056 32,775 45 438 -960
2019-01-08 14:02:57 GMT 45.622330 -2.374186 32,875 45 438 -960
2019-01-08 14:02:49 GMT 45.611481 -2.389727 33,025 45 436 -960
2019-01-08 14:02:46 GMT 45.607784 -2.395020 33,050 45 436 -960
2019-01-08 14:02:41 GMT 45.599777 -2.406418 33,125 45 436 -960
2019-01-08 14:02:38 GMT 45.595551 -2.412571 33,175 45 435 -960
2019-01-08 14:02:34 GMT 45.590424 -2.419873 33,275 45 434 -960
2019-01-08 14:02:28 GMT 45.581909 -2.432065 33,400 45 434 -960
2019-01-08 14:02:24 GMT 45.573711 -2.443909 33,425 45 434 -960
2019-01-08 14:02:19 GMT 45.567215 -2.453234 33,500 45 434 -960
2019-01-08 14:02:14 GMT 45.561539 -2.461339 33,600 45 433 -960
2019-01-08 14:02:09 GMT 45.555359 -2.470249 33,625 45 432 -960
2019-01-08 14:02:03 GMT 45.546890 -2.482374 33,725 45 432 -960
2019-01-08 14:01:59 GMT 45.540115 -2.492065 33,800 45 431 -960
2019-01-08 14:01:56 GMT 45.535908 -2.498117 33,850 45 431 -960
2019-01-08 14:01:49 GMT 45.523865 -2.515346 33,925 45 430 -960
2019-01-08 14:01:46 GMT 45.521622 -2.518616 34,000 45 429 -960
2019-01-08 14:01:42 GMT 45.516586 -2.525809 34,250 45 422 -960
2019-01-08 14:01:36 GMT 45.508209 -2.537842 34,150 45 428 -960
2019-01-08 14:01:31 GMT 45.501526 -2.547389 34,225 45 428 -896
2019-01-08 14:01:26 GMT 45.492599 -2.560207 34,350 45 427 -896
2019-01-08 14:01:19 GMT 45.485073 -2.570935 34,425 45 427 -960
2019-01-08 14:01:15 GMT 45.476742 -2.582859 34,500 45 426 -960
2019-01-08 14:01:10 GMT 45.472595 -2.588784 34,550 45 425 -960
2019-01-08 14:01:03 GMT 45.462311 -2.603425 34,700 45 424 -960
2019-01-08 14:01:00 GMT 45.458447 -2.608985 34,725 45 424 -960
2019-01-08 14:00:52 GMT 45.447414 -2.624795 34,800 45 424 -960
2019-01-08 14:00:49 GMT 45.443253 -2.630702 34,900 45 423 -960
2019-01-08 14:00:42 GMT 45.433540 -2.644490 35,000 45 423 -960
2019-01-08 14:00:39 GMT 45.428879 -2.651171 35,050 45 423 -960
2019-01-08 14:00:31 GMT 45.417252 -2.667650 35,200 45 422 -960
2019-01-08 14:00:28 GMT 45.413662 -2.672759 35,225 45 422 -960
2019-01-08 14:00:21 GMT 45.402374 -2.688838 35,375 45 421 -1024
2019-01-08 14:00:18 GMT 45.397430 -2.695901 35,425 45 421 -1024
2019-01-08 14:00:10 GMT 45.389740 -2.706822 35,525 45 421 -1024
2019-01-08 14:00:06 GMT 45.382004 -2.717743 35,625 45 421 -960
2019-01-08 13:59:58 GMT 45.372929 -2.730638 35,750 45 421 -960
2019-01-08 13:59:55 GMT 45.366028 -2.740435 35,800 45 422 -960
2019-01-08 13:59:48 GMT 45.359711 -2.749463 35,875 45 422 -960
2019-01-08 13:59:45 GMT 45.355591 -2.755345 35,925 45 422 -960
2019-01-08 13:59:42 GMT 45.348953 -2.764696 36,000 45 422 -896
2019-01-08 13:59:35 GMT 45.340950 -2.776058 36,100 45 422 -896
2019-01-08 13:59:25 GMT 45.326935 -2.796021 36,250 45 422 -896
2019-01-08 13:59:13 GMT 45.311508 -2.817928 36,575 45 421 -832
2019-01-08 13:59:06 GMT 45.299099 -2.835478 36,550 44 420 -896
2019-01-08 13:59:03 GMT 45.287247 -2.852195 36,650 44 420 -896
2019-01-08 13:58:57 GMT 45.287247 -2.852195 36,675 44 420 -896
2019-01-08 13:58:52 GMT 45.281754 -2.859977 36,775 44 412 -896
2019-01-08 13:58:42 GMT 45.267769 -2.879624 36,925 44 412 -896
2019-01-08 13:58:34 GMT 45.256363 -2.895768 37,025 44 414 -960
2019-01-08 13:58:31 GMT 45.253105 -2.900324 37,075 44 413 -896
2019-01-08 13:58:20 GMT 45.237926 -2.921626 37,225 44 412 -896
2019-01-08 13:58:10 GMT 45.224716 -2.940281 37,425 44 412 -960
2019-01-08 13:57:59 GMT 45.209564 -2.961600 37,550 44 413 -1024
2019-01-08 13:57:50 GMT 45.195705 -2.981180 37,750 44 416 -1024
2019-01-08 13:57:47 GMT 45.192123 -2.986189 37,800 44 417 -1088
2019-01-08 13:57:36 GMT 45.177933 -3.006199 37,975 44 418 -448
2019-01-08 13:57:26 GMT 45.161720 -3.028944 38,000 44 418 0
2019-01-08 13:57:17 GMT 45.153214 -3.040924 38,000 44 417 -64
2019-01-08 13:57:07 GMT 45.138680 -3.061233 38,000 44 417 0
2019-01-08 13:57:01 GMT 45.130440 -3.072688 38,000 44 417 0
2019-01-08 13:56:56 GMT 45.123596 -3.082254 38,000 44 416 0
2019-01-08 13:56:45 GMT 45.108856 -3.102853 38,000 44 415 0
2019-01-08 13:56:35 GMT 45.094666 -3.122733 38,000 44 415 0
2019-01-08 13:56:24 GMT 45.080521 -3.142548 38,000 44 415 0
2019-01-08 13:56:14 GMT 45.066376 -3.162362 38,000 44 414 0
2019-01-08 13:56:03 GMT 45.051178 -3.183681 38,000 44 413 0
2019-01-08 13:55:52 GMT 45.036777 -3.203720 38,000 44 412 0
2019-01-08 13:55:42 GMT 45.022762 -3.223415 38,000 44 411 0
2019-01-08 13:55:31 GMT 45.008194 -3.243780 38,000 44 410 0
2019-01-08 13:55:20 GMT 44.993912 -3.263724 38,000 44 410 0
2019-01-08 13:55:10 GMT 44.980213 -3.282969 38,000 44 410 0
2019-01-08 13:55:00 GMT 44.965942 -3.302896 38,000 44 410 0
2019-01-08 13:54:56 GMT 44.959488 -3.311855 38,000 44 409 0
2019-01-08 13:54:49 GMT 44.951431 -3.323103 38,000 44 408 0
2019-01-08 13:54:38 GMT 44.937107 -3.342858 38,000 44 408 0
2019-01-08 13:54:34 GMT 44.928448 -3.354648 38,000 44 408 0
2019-01-08 13:54:28 GMT 44.923004 -3.362017 38,000 44 408 0
2019-01-08 13:54:17 GMT 44.908340 -3.381980 38,000 43 408 0
2019-01-08 13:54:06 GMT 44.893723 -3.401876 38,000 44 407 0
2019-01-08 13:53:56 GMT 44.879883 -3.420606 38,000 44 407 64
2019-01-08 13:53:45 GMT 44.865829 -3.439702 38,000 44 407 0
2019-01-08 13:53:39 GMT 44.855530 -3.453696 38,000 44 406 0
2019-01-08 13:53:35 GMT 44.850986 -3.459956 38,000 44 407 0
2019-01-08 13:53:24 GMT 44.836834 -3.478915 38,000 42 405 0
2019-01-08 13:53:13 GMT 44.821747 -3.496987 38,000 38 404 0
2019-01-08 13:53:03 GMT 44.805405 -3.513467 38,000 33 402 0
2019-01-08 13:52:52 GMT 44.788605 -3.528900 38,000 33 402 0
2019-01-08 13:52:41 GMT 44.772400 -3.543679 38,000 33 402 0
2019-01-08 13:52:30 GMT 44.754066 -3.560508 38,000 33 401 0
2019-01-08 13:52:15 GMT 44.730743 -3.581870 38,000 33 402 0
2019-01-08 13:52:09 GMT 44.722046 -3.589848 38,000 33 402 0
2019-01-08 13:51:58 GMT 44.705246 -3.605216 38,000 33 401 0
2019-01-08 13:51:47 GMT 44.688446 -3.620584 38,000 33 401 0
2019-01-08 13:51:37 GMT 44.672287 -3.635298 38,000 33 401 0
2019-01-08 13:51:26 GMT 44.655140 -3.650877 38,000 33 401 -64
2019-01-08 13:51:15 GMT 44.638687 -3.665902 38,000 32 401 0
2019-01-08 13:51:04 GMT 44.621578 -3.681425 38,000 33 401 0
2019-01-08 13:50:54 GMT 44.606030 -3.695560 38,000 33 401 0
2019-01-08 13:50:44 GMT 44.590164 -3.709978 38,000 32 401 0
2019-01-08 13:50:34 GMT 44.573959 -3.724627 38,000 32 401 0
2019-01-08 13:50:22 GMT 44.555878 -3.741041 38,000 33 401 0
2019-01-08 13:50:09 GMT 44.534683 -3.760267 38,000 33 401 0
2019-01-08 13:49:56 GMT 44.514416 -3.778694 38,000 33 402 -64
2019-01-08 13:49:48 GMT 44.502590 -3.789479 38,000 33 403 0
2019-01-08 13:49:40 GMT 44.490719 -3.800265 38,000 33 403 0
2019-01-08 13:49:30 GMT 44.474426 -3.815002 38,000 32 403 0
2019-01-08 13:49:18 GMT 44.456268 -3.831482 38,000 32 404 0
2019-01-08 13:49:08 GMT 44.439323 -3.846756 38,000 32 404 0
2019-01-08 13:48:51 GMT 44.412643 -3.870850 38,000 32 404 0
2019-01-08 13:48:48 GMT 44.407948 -3.875092 38,000 32 404 0
2019-01-08 13:48:44 GMT 44.401337 -3.881051 38,000 32 404 0
2019-01-08 13:48:37 GMT 44.391266 -3.890141 38,000 32 404 0
2019-01-08 13:48:30 GMT 44.378082 -3.902043 38,000 32 405 0
2019-01-08 13:48:20 GMT 44.363911 -3.914817 38,000 32 405 0
2019-01-08 13:48:15 GMT 44.356976 -3.921047 38,000 32 405 -64
2019-01-08 13:48:06 GMT 44.342148 -3.934348 38,000 32 407 0
2019-01-08 13:47:58 GMT 44.328918 -3.946315 38,000 32 405 -64
2019-01-08 13:47:48 GMT 44.313450 -3.960169 38,000 32 406 64
2019-01-08 13:47:34 GMT 44.289429 -3.981740 38,000 32 406 0
2019-01-08 13:47:24 GMT 44.275818 -3.993923 38,000 32 407 -64
2019-01-08 13:47:16 GMT 44.262543 -4.005824 38,000 32 407 64
2019-01-08 13:47:07 GMT 44.247063 -4.019790 38,000 32 407 0
2019-01-08 13:46:56 GMT 44.230911 -4.034271 38,000 32 408 0
2019-01-08 13:46:51 GMT 44.224255 -4.040222 38,000 32 408 0
2019-01-08 13:46:43 GMT 44.209076 -4.053888 38,000 32 408 0
2019-01-08 13:46:26 GMT 44.183056 -4.077170 38,000 32 408 -64
2019-01-08 13:46:21 GMT 44.176437 -4.083145 38,000 32 407 0
2019-01-08 13:46:06 GMT 44.152191 -4.103394 38,000 28 408 64
2019-01-08 13:45:57 GMT 44.134548 -4.115295 38,000 25 408 0
2019-01-08 13:45:48 GMT 44.120209 -4.124647 38,000 25 408 -64
2019-01-08 13:45:38 GMT 44.102097 -4.136480 38,000 25 408 0
2019-01-08 13:45:28 GMT 44.087036 -4.146253 38,000 25 408 0
2019-01-08 13:45:17 GMT 44.068542 -4.158325 38,000 25 408 0
2019-01-08 13:45:13 GMT 44.061722 -4.162796 38,000 25 408 0
2019-01-08 13:45:08 GMT 44.053482 -4.168162 38,000 25 409 0
2019-01-08 13:45:04 GMT 44.045975 -4.173080 38,000 25 409 0
2019-01-08 13:44:52 GMT 44.025055 -4.186707 38,000 25 410 0
2019-01-08 13:44:41 GMT 44.004528 -4.200112 38,000 25 410 -64
2019-01-08 13:44:30 GMT 43.988388 -4.210638 38,000 25 410 0
2019-01-08 13:44:24 GMT 43.976715 -4.218239 38,000 25 410 0
2019-01-08 13:44:20 GMT 43.971268 -4.221816 38,000 25 410 0
2019-01-08 13:44:17 GMT 43.963715 -4.226734 38,000 25 410 0
2019-01-08 13:44:10 GMT 43.953739 -4.233268 38,000 25 410 0
2019-01-08 13:44:06 GMT 43.945862 -4.238423 38,000 25 410 0
2019-01-08 13:44:00 GMT 43.934189 -4.245960 38,000 25 411 0
2019-01-08 13:43:54 GMT 43.926636 -4.250879 38,000 25 411 0
2019-01-08 13:43:49 GMT 43.915287 -4.258248 38,000 25 411 0
2019-01-08 13:43:46 GMT 43.911190 -4.260930 38,000 25 411 0
2019-01-08 13:43:38 GMT 43.897457 -4.269889 38,000 25 410 0
2019-01-08 13:43:35 GMT 43.892990 -4.272724 38,000 25 410 0
2019-01-08 13:43:31 GMT 43.887451 -4.276300 38,000 25 410 0
2019-01-08 13:43:26 GMT 43.878185 -4.282314 38,000 25 410 0
2019-01-08 13:43:23 GMT 43.871994 -4.286368 38,000 25 410 0
2019-01-08 13:43:20 GMT 43.867851 -4.288984 38,000 25 411 0
2019-01-08 13:43:16 GMT 43.858913 -4.294804 38,000 25 410 0
2019-01-08 13:43:13 GMT 43.856167 -4.296570 38,000 25 411 0
2019-01-08 13:43:03 GMT 43.838287 -4.308145 38,000 25 410 0
2019-01-08 13:42:53 GMT 43.803589 -4.330593 38,000 25 410 -64
2019-01-08 13:42:43 GMT 43.803589 -4.330593 38,000 25 410 0
2019-01-08 13:42:32 GMT 43.784317 -4.343049 38,000 25 410 0
2019-01-08 13:42:29 GMT 43.779510 -4.346179 38,000 25 410 0
2019-01-08 13:42:22 GMT 43.766418 -4.354546 38,000 25 410 0
2019-01-08 13:42:11 GMT 43.746460 -4.367449 38,000 25 410 0
2019-01-08 13:42:03 GMT 43.733368 -4.375880 38,000 25 410 -64
2019-01-08 13:41:59 GMT 43.728561 -4.378946 38,000 25 410 -64
2019-01-08 13:41:52 GMT 43.716156 -4.386930 38,000 25 410 0
2019-01-08 13:41:48 GMT 43.710316 -4.390738 38,000 25 410 0
2019-01-08 13:41:45 GMT 43.704124 -4.394662 38,000 25 410 0
2019-01-08 13:41:41 GMT 43.697281 -4.399109 38,000 25 410 0
2019-01-08 13:41:38 GMT 43.692440 -4.402248 38,000 25 410 -64
2019-01-08 13:41:35 GMT 43.687317 -4.405581 38,000 25 410 0
2019-01-08 13:41:28 GMT 43.673214 -4.414607 38,000 25 410 0
2019-01-08 13:41:20 GMT 43.661179 -4.422380 38,000 25 410 0
2019-01-08 13:41:17 GMT 43.654312 -4.426788 38,000 25 410 64
2019-01-08 13:41:10 GMT 43.644699 -4.432983 38,000 25 409 64
2019-01-08 13:41:06 GMT 43.636459 -4.438285 38,000 25 409 0
2019-01-08 13:41:01 GMT 43.626846 -4.444481 38,000 25 409 0
2019-01-08 13:40:55 GMT 43.616886 -4.450902 38,000 25 409 0
2019-01-08 13:40:50 GMT 43.609680 -4.455595 38,000 25 409 0
2019-01-08 13:40:44 GMT 43.599056 -4.462411 38,000 25 409 0
2019-01-08 13:40:39 GMT 43.591515 -4.467316 38,000 25 409 0
2019-01-08 13:40:36 GMT 43.585323 -4.471239 38,000 25 409 0
2019-01-08 13:40:30 GMT 43.573685 -4.478760 38,000 24 409 0
2019-01-08 13:40:23 GMT 43.561661 -4.486446 38,000 24 409 0
2019-01-08 13:40:19 GMT 43.556507 -4.489746 38,000 24 409 0
2019-01-08 13:40:12 GMT 43.543167 -4.498327 38,000 24 409 0
2019-01-08 13:40:08 GMT 43.538361 -4.501392 38,000 24 409 0
2019-01-08 13:39:58 GMT 43.520508 -4.512762 38,000 24 408 0
2019-01-08 13:39:48 GMT 43.502701 -4.524132 38,000 24 408 64
2019-01-08 13:39:38 GMT 43.485580 -4.535118 38,000 24 409 0
2019-01-08 13:39:27 GMT 43.467407 -4.546705 38,000 24 409 -64
2019-01-08 13:39:18 GMT 43.449966 -4.557921 38,000 24 408 -64
2019-01-08 13:39:07 GMT 43.432491 -4.569070 38,000 24 408 0
2019-01-08 13:38:56 GMT 43.413666 -4.581043 38,000 24 408 0
2019-01-08 13:38:46 GMT 43.395859 -4.592349 38,000 24 408 0
2019-01-08 13:38:36 GMT 43.380112 -4.602377 38,000 24 408 -64
2019-01-08 13:38:23 GMT 43.358917 -4.615855 38,000 24 408 0
2019-01-08 13:38:15 GMT 43.344231 -4.625244 38,000 24 407 -64
2019-01-08 13:38:11 GMT 43.337723 -4.629332 38,000 24 408 0
2019-01-08 13:38:05 GMT 43.326447 -4.636492 38,000 24 407 0
2019-01-08 13:38:01 GMT 43.321335 -4.639807 38,000 24 407 64
2019-01-08 13:37:55 GMT 43.309361 -4.647348 38,000 24 407 0
2019-01-08 13:37:50 GMT 43.302521 -4.651729 38,000 24 407 0
2019-01-08 13:37:45 GMT 43.290882 -4.659053 38,000 24 407 0
2019-01-08 13:37:40 GMT 43.284084 -4.663435 38,000 24 407 0
2019-01-08 13:37:33 GMT 43.272125 -4.670978 38,000 24 406 0
2019-01-08 13:37:28 GMT 43.263931 -4.676216 38,000 24 406 64
2019-01-08 13:37:23 GMT 43.256062 -4.681157 38,000 24 407 64
2019-01-08 13:37:17 GMT 43.245819 -4.687696 38,000 24 406 0
2019-01-08 13:37:12 GMT 43.236275 -4.693713 38,000 24 406 -64
2019-01-08 13:37:07 GMT 43.228081 -4.698944 38,000 24 406 -64
2019-01-08 13:37:03 GMT 43.220589 -4.703718 38,000 24 406 0
2019-01-08 13:36:57 GMT 43.209648 -4.710584 38,000 24 406 0
2019-01-08 13:36:52 GMT 43.202805 -4.714966 38,000 24 406 64
2019-01-08 13:36:48 GMT 43.195309 -4.719674 38,000 24 406 0
2019-01-08 13:36:43 GMT 43.185425 -4.725973 38,000 24 407 -64
2019-01-08 13:36:40 GMT 43.181305 -4.728592 38,000 24 407 -64
2019-01-08 13:36:32 GMT 43.167938 -4.737004 38,000 24 408 0
2019-01-08 13:36:29 GMT 43.163498 -4.739770 38,000 24 408 64
2019-01-08 13:36:21 GMT 43.149765 -4.748393 38,000 24 408 0
2019-01-08 13:36:16 GMT 43.138824 -4.755355 38,000 24 408 0
2019-01-08 13:36:12 GMT 43.132977 -4.759042 38,000 24 409 -64
2019-01-08 13:36:01 GMT 43.114353 -4.770748 38,000 24 410 0
2019-01-08 13:35:50 GMT 43.096802 -4.781799 38,000 24 411 0
2019-01-08 13:35:37 GMT 43.072926 -4.796775 38,000 24 411 0
2019-01-08 13:35:30 GMT 43.061192 -4.804164 38,000 24 411 0
2019-01-08 13:35:25 GMT 43.050812 -4.810638 38,000 24 412 0
2019-01-08 13:35:19 GMT 43.043224 -4.815478 38,000 24 412 0
2019-01-08 13:35:14 GMT 43.031445 -4.822867 38,000 24 412 0
2019-01-08 13:35:09 GMT 43.025253 -4.826791 38,000 24 411 -64
2019-01-08 13:35:05 GMT 43.017975 -4.831302 38,000 24 411 0
2019-01-08 13:34:59 GMT 43.007236 -4.838039 38,000 24 411 -64
2019-01-08 13:34:54 GMT 42.999298 -4.843054 38,000 24 411 0
2019-01-08 13:34:49 GMT 42.988907 -4.849570 38,000 24 412 -64
2019-01-08 13:34:41 GMT 42.976501 -4.857362 38,000 24 411 0
2019-01-08 13:34:37 GMT 42.970276 -4.861259 38,000 24 411 0
2019-01-08 13:34:30 GMT 42.957184 -4.869562 38,000 24 411 64
2019-01-08 13:34:27 GMT 42.953018 -4.872181 38,000 24 411 64
2019-01-08 13:34:18 GMT 42.935410 -4.883227 38,000 24 411 -64
2019-01-08 13:34:07 GMT 42.918137 -4.894082 38,000 24 411 0
2019-01-08 13:33:56 GMT 42.899517 -4.905722 38,000 24 410 0
2019-01-08 13:33:47 GMT 42.881641 -4.916970 38,000 24 409 0
2019-01-08 13:33:34 GMT 42.861328 -4.929668 38,000 24 409 64
2019-01-08 13:33:26 GMT 42.845840 -4.939335 38,000 24 409 0
2019-01-08 13:33:14 GMT 42.825871 -4.951826 38,000 24 410 0
2019-01-08 13:33:04 GMT 42.808647 -4.962499 38,000 24 410 64
2019-01-08 13:32:52 GMT 42.787674 -4.975621 38,000 24 410 -64
2019-01-08 13:32:42 GMT 42.770462 -4.986295 38,000 24 409 0
2019-01-08 13:32:34 GMT 42.758415 -4.993797 38,000 24 409 0
2019-01-08 13:32:30 GMT 42.749817 -4.999154 38,000 24 409 0
2019-01-08 13:32:23 GMT 42.739841 -5.005358 38,000 24 409 0
2019-01-08 13:32:19 GMT 42.732605 -5.009890 38,000 24 409 64
2019-01-08 13:32:13 GMT 42.722305 -5.016320 38,000 24 409 0
2019-01-08 13:32:09 GMT 42.714752 -5.021002 38,000 24 409 0
2019-01-08 13:32:03 GMT 42.704453 -5.027369 38,000 24 409 0
2019-01-08 13:31:56 GMT 42.693420 -5.034235 38,000 24 409 0
2019-01-08 13:31:53 GMT 42.686867 -5.038253 38,000 24 409 64
2019-01-08 13:31:47 GMT 42.676895 -5.044410 38,000 24 409 -64
2019-01-08 13:31:43 GMT 42.669342 -5.049092 38,000 24 409 0
2019-01-08 13:31:35 GMT 42.656937 -5.056770 38,000 24 409 64
2019-01-08 13:31:32 GMT 42.651066 -5.060418 38,000 24 409 64
2019-01-08 13:31:26 GMT 42.639038 -5.067881 38,000 24 409 64
2019-01-08 13:31:21 GMT 42.632858 -5.071689 38,000 24 409 0
2019-01-08 13:31:15 GMT 42.620453 -5.079367 38,000 24 409 0
2019-01-08 13:31:10 GMT 42.612167 -5.084485 38,000 24 409 0
2019-01-08 13:31:01 GMT 42.598045 -5.093249 38,000 24 410 0
2019-01-08 13:30:53 GMT 42.583923 -5.102026 38,000 24 410 64
2019-01-08 13:30:49 GMT 42.577011 -5.106271 38,000 24 410 0
2019-01-08 13:30:41 GMT 42.564247 -5.114200 38,000 24 410 0
2019-01-08 13:30:32 GMT 42.546326 -5.125314 38,000 24 410 64
2019-01-08 13:30:20 GMT 42.528030 -5.136670 38,000 24 411 0
2019-01-08 13:30:08 GMT 42.506607 -5.149904 38,000 24 411 0
2019-01-08 13:29:59 GMT 42.490322 -5.159933 38,000 24 411 0
2019-01-08 13:29:49 GMT 42.472305 -5.171047 38,000 24 412 0
2019-01-08 13:29:37 GMT 42.452244 -5.183375 38,000 24 412 0
2019-01-08 13:29:26 GMT 42.434925 -5.194042 38,000 24 412 -64
2019-01-08 13:29:16 GMT 42.414162 -5.206817 38,000 24 411 64
2019-01-08 13:29:05 GMT 42.396149 -5.217931 38,000 24 412 -64
2019-01-08 13:28:54 GMT 42.378132 -5.228981 38,000 24 412 0
2019-01-08 13:28:43 GMT 42.359070 -5.240728 38,000 24 412 0
2019-01-08 13:28:33 GMT 42.340702 -5.252040 38,000 24 412 0
2019-01-08 13:28:20 GMT 42.319149 -5.265198 38,000 24 413 0
2019-01-08 13:28:11 GMT 42.303883 -5.274587 38,000 24 413 64
2019-01-08 13:28:01 GMT 42.285072 -5.286021 38,000 24 413 0
2019-01-08 13:27:48 GMT 42.264542 -5.298531 38,000 24 413 0
2019-01-08 13:27:39 GMT 42.248520 -5.308269 38,000 24 413 0
2019-01-08 13:27:26 GMT 42.225861 -5.322046 38,000 24 413 64
2019-01-08 13:27:17 GMT 42.210205 -5.331553 38,000 24 413 0
2019-01-08 13:27:07 GMT 42.192352 -5.343350 38,000 28 412 0
2019-01-08 13:26:56 GMT 42.174652 -5.356410 38,000 28 413 -64
2019-01-08 13:26:46 GMT 42.155937 -5.370270 38,000 28 412 0
2019-01-08 13:26:41 GMT 42.147278 -5.376722 38,000 29 411 64
2019-01-08 13:26:34 GMT 42.136917 -5.384424 38,000 29 411 0
2019-01-08 13:26:28 GMT 42.127579 -5.391353 38,000 28 412 -64
2019-01-08 13:26:24 GMT 42.118927 -5.397783 38,000 28 412 64
2019-01-08 13:26:19 GMT 42.111946 -5.402974 38,000 28 412 0
2019-01-08 13:26:11 GMT 42.100250 -5.411641 38,000 28 412 0
2019-01-08 13:26:08 GMT 42.094254 -5.416072 38,000 28 412 0
2019-01-08 13:26:02 GMT 42.084229 -5.423501 38,000 28 412 0
2019-01-08 13:25:58 GMT 42.077263 -5.428715 38,000 28 412 0
2019-01-08 13:25:52 GMT 42.065907 -5.437083 38,000 28 412 64
2019-01-08 13:25:47 GMT 42.059898 -5.441554 38,000 28 412 0
2019-01-08 13:25:40 GMT 42.048203 -5.450155 38,000 28 412 0
2019-01-08 13:25:37 GMT 42.041840 -5.454840 38,000 28 412 -64
2019-01-08 13:25:30 GMT 42.030479 -5.463207 38,000 28 412 -64
2019-01-08 13:25:19 GMT 42.012463 -5.476493 38,000 28 411 64
2019-01-08 13:25:15 GMT 42.004456 -5.482433 38,000 28 411 0
2019-01-08 13:25:08 GMT 41.992401 -5.491248 38,000 28 412 0
2019-01-08 13:24:58 GMT 41.975735 -5.503576 38,000 28 411 0
2019-01-08 13:24:54 GMT 41.970016 -5.507708 38,000 28 411 0
2019-01-08 13:24:47 GMT 41.958370 -5.516350 38,000 28 412 0
2019-01-08 13:24:43 GMT 41.953014 -5.520247 38,000 28 412 0
2019-01-08 13:24:38 GMT 41.943008 -5.527656 38,000 28 411 0
2019-01-08 13:24:33 GMT 41.935318 -5.533302 38,000 28 411 0
2019-01-08 13:24:29 GMT 41.918941 -5.545349 38,000 28 412 0
2019-01-08 13:24:23 GMT 41.918941 -5.545349 38,000 28 412 0
2019-01-08 13:24:19 GMT 41.911587 -5.550715 38,000 28 412 0
2019-01-08 13:24:14 GMT 41.892872 -5.564447 38,000 28 412 0
2019-01-08 13:24:07 GMT 41.892872 -5.564447 38,000 28 412 0
2019-01-08 13:24:03 GMT 41.885147 -5.570068 38,000 28 412 0
2019-01-08 13:24:00 GMT 41.879150 -5.574500 38,000 28 412 0
2019-01-08 13:23:56 GMT 41.874111 -5.578116 38,000 28 412 0
2019-01-08 13:23:53 GMT 41.867111 -5.583302 38,000 28 412 -64
2019-01-08 13:23:43 GMT 41.849716 -5.595974 38,000 28 412 0
2019-01-08 13:23:40 GMT 41.847015 -5.597971 38,000 28 412 64
2019-01-08 13:23:34 GMT 41.837334 -5.605071 38,000 28 412 64
2019-01-08 13:23:30 GMT 41.830994 -5.609707 38,000 28 412 0
2019-01-08 13:23:27 GMT 41.823929 -5.614844 38,000 28 412 0
2019-01-08 13:23:19 GMT 41.810566 -5.624681 38,000 28 412 0
2019-01-08 13:23:16 GMT 41.804855 -5.628808 38,000 28 412 0
2019-01-08 13:23:13 GMT 41.802513 -5.630557 38,000 28 412 0
2019-01-08 13:23:09 GMT 41.796158 -5.635175 38,000 28 412 0
2019-01-08 13:23:03 GMT 41.785149 -5.643268 38,000 28 412 0
2019-01-08 13:22:58 GMT 41.776108 -5.649907 38,000 28 413 0
2019-01-08 13:22:54 GMT 41.770393 -5.654063 38,000 28 413 0
2019-01-08 13:22:46 GMT 41.756699 -5.664076 38,000 28 412 64
2019-01-08 13:22:43 GMT 41.751984 -5.667510 38,000 28 412 0
2019-01-08 13:22:38 GMT 41.741272 -5.675375 38,000 28 413 0
2019-01-08 13:22:31 GMT 41.732220 -5.681976 38,000 28 413 64
2019-01-08 13:22:26 GMT 41.721466 -5.689768 38,000 28 413 0
2019-01-08 13:22:21 GMT 41.714447 -5.694913 38,000 28 413 -64
2019-01-08 13:22:15 GMT 41.705063 -5.701842 38,000 28 413 -128
2019-01-08 13:22:10 GMT 41.695999 -5.708419 38,000 28 413 0
2019-01-08 13:22:07 GMT 41.691299 -5.711869 38,000 28 413 64
2019-01-08 13:22:04 GMT 41.686600 -5.715254 38,000 28 413 64
2019-01-08 13:22:00 GMT 41.678833 -5.720881 38,000 28 415 0
2019-01-08 13:21:57 GMT 41.673798 -5.724580 38,000 28 415 0
2019-01-08 13:21:54 GMT 41.669403 -5.727747 38,000 28 416 -64
2019-01-08 13:21:51 GMT 41.664299 -5.731478 38,000 28 419 0
2019-01-08 13:21:47 GMT 41.655453 -5.737865 38,000 28 419 0
2019-01-08 13:21:41 GMT 41.646927 -5.744039 38,000 28 419 0
2019-01-08 13:21:33 GMT 41.625778 -5.759333 38,000 28 420 0
2019-01-08 13:21:28 GMT 41.619003 -5.764327 38,000 28 420 0
2019-01-08 13:21:24 GMT 41.619003 -5.764327 38,000 28 419 0
2019-01-08 13:21:21 GMT 41.614197 -5.767760 38,000 28 419 0
2019-01-08 13:21:18 GMT 41.608749 -5.771755 38,000 28 419 0
2019-01-08 13:21:15 GMT 41.602291 -5.776445 38,000 28 419 0
2019-01-08 13:21:10 GMT 41.594467 -5.782179 38,000 28 419 0
2019-01-08 13:20:59 GMT 41.576111 -5.795600 38,000 28 419 0
2019-01-08 13:20:53 GMT 41.565517 -5.803336 38,000 28 420 -64
2019-01-08 13:20:50 GMT 41.558022 -5.808829 38,000 28 420 0
2019-01-08 13:20:42 GMT 41.547409 -5.816512 38,000 28 421 0
2019-01-08 13:20:39 GMT 41.540936 -5.821221 38,000 28 421 0
2019-01-08 13:20:34 GMT 41.532696 -5.827161 38,000 28 421 0
2019-01-08 13:20:27 GMT 41.521408 -5.835301 38,000 28 421 64
2019-01-08 13:20:20 GMT 41.508072 -5.844982 38,000 28 421 0
2019-01-08 13:20:16 GMT 41.502579 -5.848942 38,000 28 421 0
2019-01-08 13:20:09 GMT 41.489590 -5.858332 38,000 28 421 0
2019-01-08 13:20:06 GMT 41.484795 -5.861781 38,000 28 421 0
2019-01-08 13:19:58 GMT 41.471062 -5.871681 38,000 28 421 0
2019-01-08 13:19:55 GMT 41.467300 -5.874377 38,000 28 421 -64
2019-01-08 13:19:49 GMT 41.448853 -5.887736 38,000 28 421 0
2019-01-08 13:19:45 GMT 41.448853 -5.887736 38,000 28 421 0
2019-01-08 13:19:39 GMT 41.438938 -5.894868 38,000 28 421 0
2019-01-08 13:19:35 GMT 41.430405 -5.901094 38,000 28 421 -64
2019-01-08 13:19:26 GMT 41.414314 -5.912688 38,000 28 420 64
2019-01-08 13:19:23 GMT 41.412266 -5.914158 38,000 28 420 64
2019-01-08 13:19:19 GMT 41.403717 -5.920320 38,000 28 420 0
2019-01-08 13:19:15 GMT 41.397583 -5.924752 38,000 28 420 64
2019-01-08 13:19:12 GMT 41.392822 -5.928185 38,000 28 419 0
2019-01-08 13:19:07 GMT 41.383942 -5.934570 38,000 28 420 0
2019-01-08 13:19:04 GMT 41.378448 -5.938477 38,000 28 419 -64
2019-01-08 13:19:01 GMT 41.374699 -5.941169 38,000 28 419 0
2019-01-08 13:18:57 GMT 41.367203 -5.946600 38,000 28 419 0
2019-01-08 13:18:53 GMT 41.360359 -5.951531 38,000 28 419 0
2019-01-08 13:18:50 GMT 41.354912 -5.955464 38,000 28 419 0
2019-01-08 13:18:47 GMT 41.349106 -5.959656 38,000 28 419 0
2019-01-08 13:18:44 GMT 41.344345 -5.963074 38,000 28 419 0
2019-01-08 13:18:41 GMT 41.338528 -5.967262 38,000 28 418 0
2019-01-08 13:18:33 GMT 41.319809 -5.980713 38,000 28 418 0
2019-01-08 13:18:29 GMT 41.319809 -5.980713 38,000 28 418 0
2019-01-08 13:18:24 GMT 41.309601 -5.988098 38,000 28 418 0
2019-01-08 13:18:14 GMT 41.294632 -5.998840 38,000 28 418 0
2019-01-08 13:18:11 GMT 41.289185 -6.002747 38,000 28 418 0
2019-01-08 13:18:04 GMT 41.277309 -6.011332 38,000 28 418 0
2019-01-08 13:18:01 GMT 41.272202 -6.014954 38,000 28 418 0
2019-01-08 13:17:58 GMT 41.265068 -6.020071 38,000 28 417 0
2019-01-08 13:17:50 GMT 41.252823 -6.028872 38,000 28 417 0
2019-01-08 13:17:41 GMT 41.237228 -6.040108 38,000 28 417 0
2019-01-08 13:17:33 GMT 41.225033 -6.048848 38,000 28 417 0
2019-01-08 13:17:30 GMT 41.219585 -6.052718 38,000 28 417 0
2019-01-08 13:17:25 GMT 41.210449 -6.059326 38,000 28 417 0
2019-01-08 13:17:20 GMT 41.201614 -6.065613 38,000 28 416 0
2019-01-08 13:17:15 GMT 41.191452 -6.072876 38,000 28 416 0
2019-01-08 13:17:09 GMT 41.183350 -6.078674 38,000 28 416 0
2019-01-08 13:17:04 GMT 41.173500 -6.085739 38,000 28 416 0
2019-01-08 13:17:01 GMT 41.169800 -6.088379 38,000 28 416 0
2019-01-08 13:16:58 GMT 41.164700 -6.092044 38,000 28 416 0
2019-01-08 13:16:52 GMT 41.155251 -6.098785 38,000 28 416 0
2019-01-08 13:16:49 GMT 41.149151 -6.103155 38,000 28 416 0
2019-01-08 13:16:40 GMT 41.134644 -6.113586 38,000 28 415 0
2019-01-08 13:16:37 GMT 41.130253 -6.116701 38,000 28 415 0
2019-01-08 13:16:28 GMT 41.114052 -6.128311 38,000 28 414 0
2019-01-08 13:16:17 GMT 41.095852 -6.141295 38,000 28 414 0
2019-01-08 13:16:10 GMT 41.083374 -6.150208 38,000 28 414 0
2019-01-08 13:16:07 GMT 41.078999 -6.153343 38,000 28 413 0
2019-01-08 13:15:57 GMT 41.061813 -6.165588 38,000 28 414 64
2019-01-08 13:15:49 GMT 41.046295 -6.176636 38,000 28 413 0
2019-01-08 13:15:45 GMT 41.041580 -6.179993 38,000 28 413 0
2019-01-08 13:15:36 GMT 41.026062 -6.191040 38,000 28 413 0
2019-01-08 13:15:24 GMT 41.007202 -6.204407 38,000 28 413 0
2019-01-08 13:15:17 GMT 40.992737 -6.214704 38,000 28 413 -64
2019-01-08 13:15:05 GMT 40.974243 -6.227783 38,000 28 412 0
2019-01-08 13:15:02 GMT 40.969879 -6.230871 38,000 28 412 0
2019-01-08 13:14:53 GMT 40.953728 -6.242294 38,000 28 412 0
2019-01-08 13:14:42 GMT 40.935883 -6.254883 38,000 28 412 64
2019-01-08 13:14:34 GMT 40.916336 -6.268738 38,000 28 413 0
2019-01-08 13:14:23 GMT 40.901550 -6.279236 38,000 28 413 0
2019-01-08 13:14:13 GMT 40.885712 -6.290422 38,000 28 413 0
2019-01-08 13:14:09 GMT 40.881317 -6.293518 38,000 28 413 0
2019-01-08 13:14:02 GMT 40.868210 -6.302844 38,000 28 413 -128
2019-01-08 13:13:59 GMT 40.862503 -6.306885 38,000 28 413 -192
2019-01-08 13:13:49 GMT 40.846050 -6.318512 37,975 28 412 576
2019-01-08 13:13:39 GMT 40.829945 -6.329935 37,850 28 411 640
2019-01-08 13:13:28 GMT 40.809879 -6.344105 37,750 28 410 704
2019-01-08 13:13:21 GMT 40.798473 -6.352095 37,650 28 410 704
2019-01-08 13:13:18 GMT 40.793121 -6.355903 37,625 28 410 640
2019-01-08 13:13:09 GMT 40.779419 -6.365601 37,525 28 411 704
2019-01-08 13:13:06 GMT 40.775059 -6.368700 37,500 28 410 704
2019-01-08 13:12:59 GMT 40.763000 -6.377189 37,425 28 411 704
2019-01-08 13:12:55 GMT 40.756668 -6.381653 37,375 28 410 704
2019-01-08 13:12:49 GMT 40.745956 -6.389221 37,275 28 410 768
2019-01-08 13:12:46 GMT 40.739914 -6.393433 37,225 28 410 768
2019-01-08 13:12:38 GMT 40.726227 -6.403094 37,125 28 410 832
2019-01-08 13:12:34 GMT 40.721191 -6.406677 37,075 28 410 832
2019-01-08 13:12:28 GMT 40.710480 -6.414246 36,925 28 410 768
2019-01-08 13:12:25 GMT 40.703796 -6.418945 36,925 28 410 768
2019-01-08 13:12:18 GMT 40.692753 -6.426752 36,850 28 409 768
2019-01-08 13:12:15 GMT 40.688751 -6.429561 36,825 28 409 768
2019-01-08 13:12:05 GMT 40.671387 -6.441858 36,675 28 409 896
2019-01-08 13:11:56 GMT 40.651016 -6.456177 36,475 28 410 1024
2019-01-08 13:11:52 GMT 40.651016 -6.456177 36,475 28 410 1024
2019-01-08 13:11:47 GMT 40.639965 -6.463956 36,375 28 410 1024
2019-01-08 13:11:44 GMT 40.636276 -6.466553 36,375 28 410 960
2019-01-08 13:11:41 GMT 40.632248 -6.469360 36,300 28 410 896
2019-01-08 13:11:35 GMT 40.621536 -6.476929 36,175 28 410 1216
2019-01-08 13:11:32 GMT 40.615849 -6.480935 36,125 28 411 1088
2019-01-08 13:11:25 GMT 40.603794 -6.489424 36,000 28 412 384
2019-01-08 13:11:22 GMT 40.600441 -6.491796 36,000 28 412 0
2019-01-08 13:11:13 GMT 40.585968 -6.501953 36,000 28 412 0
2019-01-08 13:11:10 GMT 40.579926 -6.506226 36,000 28 412 0
2019-01-08 13:11:06 GMT 40.573883 -6.510437 36,000 28 412 -64
2019-01-08 13:11:03 GMT 40.568832 -6.514019 36,000 28 412 0
2019-01-08 13:11:00 GMT 40.564453 -6.517029 36,000 27 412 0
2019-01-08 13:10:54 GMT 40.551701 -6.525067 36,000 22 415 0
2019-01-08 13:10:51 GMT 40.548210 -6.527065 36,000 22 415 0
2019-01-08 13:10:46 GMT 40.536850 -6.533245 36,000 22 415 0
2019-01-08 13:10:40 GMT 40.529343 -6.537231 36,000 22 415 0
2019-01-08 13:10:37 GMT 40.522606 -6.540860 36,000 22 415 0
2019-01-08 13:10:33 GMT 40.514736 -6.545043 36,000 22 415 0
2019-01-08 13:10:30 GMT 40.510117 -6.547485 36,000 22 415 0
2019-01-08 13:10:27 GMT 40.504078 -6.550723 36,000 22 415 0
2019-01-08 13:10:24 GMT 40.497299 -6.554382 36,000 22 415 0
2019-01-08 13:10:20 GMT 40.490891 -6.557800 36,000 22 415 0
2019-01-08 13:10:14 GMT 40.481598 -6.562744 36,000 22 416 0
2019-01-08 13:10:10 GMT 40.475189 -6.566162 36,000 22 416 0
2019-01-08 13:10:06 GMT 40.467674 -6.570199 36,000 22 416 0
2019-01-08 13:10:02 GMT 40.457710 -6.575505 36,000 22 417 0
2019-01-08 13:09:59 GMT 40.453430 -6.577814 36,000 22 417 0
2019-01-08 13:09:56 GMT 40.449463 -6.579895 36,000 22 417 0
2019-01-08 13:09:48 GMT 40.435181 -6.587524 36,000 22 418 0
2019-01-08 13:09:45 GMT 40.430878 -6.589844 36,000 22 418 -64
2019-01-08 13:09:41 GMT 40.420517 -6.595355 36,000 22 418 -64
2019-01-08 13:09:38 GMT 40.418701 -6.596313 36,000 22 418 0
2019-01-08 13:09:35 GMT 40.411903 -6.599974 36,000 22 418 0
2019-01-08 13:09:30 GMT 40.401897 -6.605280 36,000 22 418 0
2019-01-08 13:09:27 GMT 40.396870 -6.607964 36,000 22 418 0
2019-01-08 13:09:24 GMT 40.392586 -6.610274 36,000 22 418 64
2019-01-08 13:09:20 GMT 40.385414 -6.614082 36,000 22 418 64
2019-01-08 13:09:17 GMT 40.379688 -6.617078 36,000 22 418 64
2019-01-08 13:09:14 GMT 40.373566 -6.620361 36,000 22 418 0
2019-01-08 13:09:11 GMT 40.365646 -6.624512 36,000 22 418 0
2019-01-08 13:09:07 GMT 40.362419 -6.626254 36,000 22 419 -64
2019-01-08 13:09:03 GMT 40.350586 -6.632568 36,000 22 419 0
2019-01-08 13:08:57 GMT 40.344086 -6.635986 36,000 21 419 64
2019-01-08 13:08:53 GMT 40.335094 -6.640736 36,000 21 419 0
2019-01-08 13:08:50 GMT 40.330765 -6.642983 36,000 22 419 0
2019-01-08 13:08:44 GMT 40.320709 -6.648351 36,000 22 420 0
2019-01-08 13:08:41 GMT 40.315636 -6.651036 36,000 22 420 0
2019-01-08 13:08:38 GMT 40.309536 -6.654282 36,000 22 421 0
2019-01-08 13:08:34 GMT 40.301605 -6.658508 36,000 22 421 0
2019-01-08 13:08:30 GMT 40.295837 -6.661560 36,000 22 421 0
2019-01-08 13:08:26 GMT 40.287888 -6.665767 36,000 22 421 -64
2019-01-08 13:08:23 GMT 40.282471 -6.668640 36,000 22 421 -64
2019-01-08 13:08:19 GMT 40.272713 -6.673882 36,000 22 421 0
2019-01-08 13:08:16 GMT 40.268383 -6.676129 36,000 22 421 0
2019-01-08 13:08:13 GMT 40.264053 -6.678439 36,000 22 421 0
2019-01-08 13:08:07 GMT 40.254700 -6.683433 36,000 22 421 0
2019-01-08 13:08:02 GMT 40.245293 -6.688427 36,000 22 421 0
2019-01-08 13:07:58 GMT 40.235191 -6.693795 36,000 22 421 0
2019-01-08 13:07:55 GMT 40.231247 -6.695923 36,000 22 421 0
2019-01-08 13:07:52 GMT 40.226166 -6.698608 36,000 22 421 0
2019-01-08 13:07:47 GMT 40.216095 -6.703979 36,000 22 421 0
2019-01-08 13:07:43 GMT 40.198746 -6.713135 36,000 22 421 64
2019-01-08 13:07:38 GMT 40.198746 -6.713135 36,000 22 421 64
2019-01-08 13:07:33 GMT 40.192978 -6.716187 36,000 22 420 0
2019-01-08 13:07:30 GMT 40.186871 -6.719451 36,000 22 420 0
2019-01-08 13:07:26 GMT 40.180710 -6.722717 36,000 22 420 0
2019-01-08 13:07:22 GMT 40.174210 -6.726135 36,000 22 420 0
2019-01-08 13:07:17 GMT 40.161255 -6.732971 36,000 22 421 0
2019-01-08 13:07:10 GMT 40.150047 -6.738864 36,000 22 421 -64
2019-01-08 13:07:06 GMT 40.141754 -6.743286 36,000 22 420 -64
2019-01-08 13:07:02 GMT 40.136314 -6.746167 36,000 22 420 64
2019-01-08 13:06:59 GMT 40.131241 -6.748789 36,000 22 420 0
2019-01-08 13:06:54 GMT 40.118999 -6.755281 36,000 22 421 -64
2019-01-08 13:06:51 GMT 40.116440 -6.756592 36,000 22 421 0
2019-01-08 13:06:48 GMT 40.112823 -6.758484 36,000 22 421 -64
2019-01-08 13:06:44 GMT 40.104172 -6.763062 36,000 22 421 -64
2019-01-08 13:06:41 GMT 40.098747 -6.765893 36,000 22 420 0
2019-01-08 13:06:38 GMT 40.093323 -6.768738 36,000 22 420 0
2019-01-08 13:06:34 GMT 40.082874 -6.774257 36,000 22 420 0
2019-01-08 13:06:30 GMT 40.078903 -6.776367 36,000 22 420 64
2019-01-08 13:06:24 GMT 40.065903 -6.783203 36,000 22 420 0
2019-01-08 13:06:19 GMT 40.059040 -6.786804 36,000 22 420 0
2019-01-08 13:06:16 GMT 40.054710 -6.789114 36,000 22 420 0
2019-01-08 13:06:13 GMT 40.048939 -6.792110 36,000 22 420 0
2019-01-08 13:06:10 GMT 40.042053 -6.795715 36,000 22 420 0
2019-01-08 13:06:07 GMT 40.036285 -6.798767 36,000 22 420 0
2019-01-08 13:06:02 GMT 40.030174 -6.802035 36,000 22 420 0
2019-01-08 13:05:59 GMT 40.023285 -6.805603 36,000 22 420 0
2019-01-08 13:05:56 GMT 40.016441 -6.809214 36,000 22 420 0
2019-01-08 13:05:51 GMT 40.009926 -6.812647 36,000 22 421 0
2019-01-08 13:05:48 GMT 40.003052 -6.816284 36,000 22 421 0
2019-01-08 13:05:44 GMT 39.997284 -6.819336 36,000 22 421 0
2019-01-08 13:05:41 GMT 39.991863 -6.822135 36,000 22 421 0
2019-01-08 13:05:38 GMT 39.978516 -6.829224 36,000 22 421 0
2019-01-08 13:05:35 GMT 39.978516 -6.829224 36,000 22 420 0
2019-01-08 13:05:31 GMT 39.973103 -6.832060 36,000 22 421 0
2019-01-08 13:05:27 GMT 39.965839 -6.835868 36,000 22 420 0
2019-01-08 13:05:23 GMT 39.956818 -6.840576 36,000 22 420 0
2019-01-08 13:05:16 GMT 39.946014 -6.846252 36,000 22 421 0
2019-01-08 13:05:13 GMT 39.940201 -6.849304 36,000 22 420 0
2019-01-08 13:05:10 GMT 39.934433 -6.852356 36,000 22 420 0
2019-01-08 13:05:06 GMT 39.927200 -6.856140 36,000 22 421 64
2019-01-08 13:05:02 GMT 39.921059 -6.859375 36,000 22 421 0
2019-01-08 13:04:59 GMT 39.916031 -6.862000 36,000 22 421 0
2019-01-08 13:04:55 GMT 39.908432 -6.865977 36,000 22 421 0
2019-01-08 13:04:52 GMT 39.896526 -6.872253 36,000 22 421 0
2019-01-08 13:04:49 GMT 39.896526 -6.872253 36,000 21 421 0
2019-01-08 13:04:45 GMT 39.889263 -6.876038 36,000 21 421 0
2019-01-08 13:04:42 GMT 39.883850 -6.878874 36,000 22 421 0
2019-01-08 13:04:38 GMT 39.877720 -6.882080 36,000 22 421 0
2019-01-08 13:04:34 GMT 39.870457 -6.885864 36,000 22 421 0
2019-01-08 13:04:28 GMT 39.858910 -6.891907 36,000 22 421 0
2019-01-08 13:04:21 GMT 39.845875 -6.898743 36,000 22 421 -64
2019-01-08 13:04:17 GMT 39.840103 -6.901733 36,000 22 421 0
2019-01-08 13:04:11 GMT 39.827812 -6.908203 36,000 22 421 0
2019-01-08 13:04:07 GMT 39.820908 -6.911774 36,000 22 421 64
2019-01-08 13:04:02 GMT 39.811893 -6.916504 36,000 22 421 0
2019-01-08 13:03:59 GMT 39.805710 -6.919715 36,000 22 421 0
2019-01-08 13:03:56 GMT 39.801743 -6.921814 36,000 22 421 -64
2019-01-08 13:03:53 GMT 39.793442 -6.926163 36,000 22 421 0
2019-01-08 13:03:49 GMT 39.788712 -6.928650 36,000 22 421 0
2019-01-08 13:03:46 GMT 39.783279 -6.931477 36,000 22 421 0
2019-01-08 13:03:42 GMT 39.775677 -6.935425 36,000 22 421 0
2019-01-08 13:03:39 GMT 39.768814 -6.939060 36,000 22 421 0
2019-01-08 13:03:35 GMT 39.763386 -6.941895 36,000 22 421 0
2019-01-08 13:03:32 GMT 39.756500 -6.945449 36,000 22 421 0
2019-01-08 13:03:28 GMT 39.747463 -6.950195 36,000 22 421 0
2019-01-08 13:03:25 GMT 39.744579 -6.951721 36,000 22 421 0
2019-01-08 13:03:21 GMT 39.737686 -6.955301 36,000 22 421 0
2019-01-08 13:03:17 GMT 39.727215 -6.960754 36,000 22 421 64
2019-01-08 13:03:14 GMT 39.724686 -6.962108 36,000 21 421 0
2019-01-08 13:03:11 GMT 39.718510 -6.965332 36,000 22 421 0
2019-01-08 13:03:07 GMT 39.711990 -6.968689 36,000 22 421 0
2019-01-08 13:03:03 GMT 39.704777 -6.972473 36,000 22 421 64
2019-01-08 13:03:00 GMT 39.699703 -6.975098 36,000 21 422 64
2019-01-08 13:02:56 GMT 39.692825 -6.978707 36,000 21 422 0
2019-01-08 13:02:53 GMT 39.687744 -6.981334 36,000 21 422 -64
2019-01-08 13:02:50 GMT 39.680847 -6.984924 36,000 21 422 -64
2019-01-08 13:02:46 GMT 39.674332 -6.988342 36,000 21 422 -64
2019-01-08 13:02:42 GMT 39.668152 -6.991544 36,000 21 422 0
2019-01-08 13:02:39 GMT 39.661251 -6.995117 36,000 21 422 0
2019-01-08 13:02:35 GMT 39.654373 -6.998709 36,000 21 422 64
2019-01-08 13:02:32 GMT 39.649292 -7.001336 36,000 21 422 64
2019-01-08 13:02:29 GMT 39.642059 -7.005157 36,000 21 422 0
2019-01-08 13:02:26 GMT 39.636246 -7.008143 36,000 21 422 0
2019-01-08 13:02:22 GMT 39.630432 -7.011188 36,000 21 422 0
2019-01-08 13:02:17 GMT 39.621735 -7.015666 36,000 21 422 0
2019-01-08 13:02:14 GMT 39.614838 -7.019287 36,000 21 422 0
2019-01-08 13:02:11 GMT 39.611572 -7.020980 36,000 21 422 0
2019-01-08 13:02:08 GMT 39.603989 -7.024902 36,000 21 422 0
2019-01-08 13:02:05 GMT 39.599613 -7.027222 36,000 21 422 0
2019-01-08 13:02:01 GMT 39.592400 -7.030945 36,000 21 422 0
2019-01-08 13:01:54 GMT 39.574245 -7.040344 36,000 21 422 64
2019-01-08 13:01:49 GMT 39.570969 -7.042057 36,000 21 422 0
2019-01-08 13:01:46 GMT 39.565155 -7.045102 36,000 21 423 0
2019-01-08 13:01:43 GMT 39.559719 -7.047913 36,000 21 423 0
2019-01-08 13:01:40 GMT 39.554260 -7.050715 36,000 21 423 0
2019-01-08 13:01:33 GMT 39.541901 -7.057104 36,000 21 423 0
2019-01-08 13:01:29 GMT 39.535000 -7.060669 36,000 21 423 0
2019-01-08 13:01:25 GMT 39.527039 -7.064819 36,000 21 422 0
2019-01-08 13:01:18 GMT 39.515404 -7.070862 36,000 21 422 0
2019-01-08 13:01:14 GMT 39.506695 -7.075378 36,000 21 422 0
2019-01-08 13:01:11 GMT 39.500519 -7.078599 36,000 21 422 0
2019-01-08 13:01:08 GMT 39.497246 -7.080322 36,000 21 422 0
2019-01-08 13:01:02 GMT 39.484909 -7.086731 36,000 21 422 -64
2019-01-08 13:00:58 GMT 39.478043 -7.090302 36,000 21 422 0
2019-01-08 13:00:51 GMT 39.464951 -7.097049 36,000 21 422 64
2019-01-08 13:00:47 GMT 39.459538 -7.099854 36,000 21 422 64
2019-01-08 13:00:43 GMT 39.450832 -7.104370 36,000 21 422 0
2019-01-08 13:00:40 GMT 39.444672 -7.107557 36,000 21 422 -64
2019-01-08 13:00:37 GMT 39.439941 -7.109985 36,000 21 422 -64
2019-01-08 13:00:33 GMT 39.425079 -7.117648 36,000 21 421 0
2019-01-08 13:00:26 GMT 39.420387 -7.120056 36,000 21 421 0
2019-01-08 13:00:22 GMT 39.413498 -7.123619 36,000 21 421 0
2019-01-08 13:00:15 GMT 39.400837 -7.130127 36,000 21 420 64
2019-01-08 13:00:11 GMT 39.389603 -7.135859 36,000 21 420 0
2019-01-08 13:00:04 GMT 39.381985 -7.139771 36,000 21 420 0
2019-01-08 13:00:01 GMT 39.375511 -7.143066 36,000 21 420 0
2019-01-08 12:59:58 GMT 39.368252 -7.146790 36,000 21 420 0
2019-01-08 12:59:54 GMT 39.362823 -7.149532 36,000 21 420 0
2019-01-08 12:59:51 GMT 39.355591 -7.153234 36,000 21 420 0
2019-01-08 12:59:43 GMT 39.342926 -7.159668 36,000 21 420 0
2019-01-08 12:59:39 GMT 39.332825 -7.164856 36,000 21 420 0
2019-01-08 12:59:36 GMT 39.329590 -7.166489 36,000 21 420 0
2019-01-08 12:59:33 GMT 39.324863 -7.168884 36,000 21 419 0
2019-01-08 12:59:28 GMT 39.314762 -7.174011 36,000 21 419 0
2019-01-08 12:59:22 GMT 39.304661 -7.179199 36,000 21 419 0
2019-01-08 12:59:18 GMT 39.295303 -7.184021 36,000 21 419 0
2019-01-08 12:59:12 GMT 39.286285 -7.188641 36,000 21 419 64
2019-01-08 12:59:07 GMT 39.277287 -7.193298 36,000 21 418 0
2019-01-08 12:59:01 GMT 39.267563 -7.198254 36,000 21 419 0
2019-01-08 12:58:57 GMT 39.257492 -7.203449 36,000 21 419 0
2019-01-08 12:58:54 GMT 39.254944 -7.204773 36,000 21 419 0
2019-01-08 12:58:51 GMT 39.236973 -7.214111 36,000 22 418 0
2019-01-08 12:58:45 GMT 39.236973 -7.214111 36,000 22 418 0
2019-01-08 12:58:39 GMT 39.221050 -7.221863 36,000 18 419 0
2019-01-08 12:58:31 GMT 39.209972 -7.226440 36,000 16 419 0
2019-01-08 12:58:28 GMT 39.206249 -7.227905 36,000 15 420 0
2019-01-08 12:58:19 GMT 39.191257 -7.233215 36,000 15 420 0
2019-01-08 12:58:15 GMT 39.179626 -7.237303 36,000 15 420 0
2019-01-08 12:58:09 GMT 39.171753 -7.240112 36,000 15 419 0
2019-01-08 12:58:05 GMT 39.163147 -7.243155 36,000 15 419 0
2019-01-08 12:58:00 GMT 39.153038 -7.246704 36,000 15 419 0
2019-01-08 12:57:54 GMT 39.139584 -7.251465 36,000 15 418 0
2019-01-08 12:57:48 GMT 39.130966 -7.254440 36,000 15 418 0
2019-01-08 12:57:43 GMT 39.113422 -7.260620 36,000 15 417 0
2019-01-08 12:57:38 GMT 39.113422 -7.260620 36,000 15 418 0
2019-01-08 12:57:33 GMT 39.102249 -7.264526 36,000 15 417 0
2019-01-08 12:57:28 GMT 39.092926 -7.267814 36,000 15 417 0
2019-01-08 12:57:22 GMT 39.084328 -7.270813 36,000 15 417 0
2019-01-08 12:57:17 GMT 39.065708 -7.277283 36,000 15 416 0
2019-01-08 12:57:13 GMT 39.065708 -7.277283 36,000 15 417 0
2019-01-08 12:57:10 GMT 39.061981 -7.278564 36,000 15 417 0
2019-01-08 12:57:07 GMT 39.054535 -7.281189 36,000 15 417 0
2019-01-08 12:57:02 GMT 39.045227 -7.284413 36,000 15 416 0
2019-01-08 12:56:55 GMT 39.033680 -7.288452 36,000 15 416 0
2019-01-08 12:56:50 GMT 39.024742 -7.291565 36,000 15 416 0
2019-01-08 12:56:44 GMT 39.013229 -7.295579 36,000 15 416 0
2019-01-08 12:56:39 GMT 39.004303 -7.298683 36,000 15 416 0
2019-01-08 12:56:34 GMT 38.995377 -7.301848 36,000 15 416 0
2019-01-08 12:56:29 GMT 38.985672 -7.305192 36,000 15 416 0
2019-01-08 12:56:24 GMT 38.976013 -7.308595 36,000 15 416 0
2019-01-08 12:56:19 GMT 38.966354 -7.311939 36,000 15 416 0
2019-01-08 12:56:12 GMT 38.950745 -7.317432 36,000 15 416 0
2019-01-08 12:56:09 GMT 38.947418 -7.318604 36,000 15 416 0
2019-01-08 12:56:03 GMT 38.936989 -7.322205 36,000 15 416 0
2019-01-08 12:55:57 GMT 38.926208 -7.325970 36,000 15 416 0
2019-01-08 12:55:52 GMT 38.916927 -7.329224 36,000 15 416 -64
2019-01-08 12:55:48 GMT 38.907242 -7.332581 36,000 15 416 0
2019-01-08 12:55:41 GMT 38.896118 -7.336487 36,000 15 416 0
2019-01-08 12:55:37 GMT 38.888306 -7.339166 36,000 15 416 0
2019-01-08 12:55:32 GMT 38.871586 -7.345032 36,000 15 416 0
2019-01-08 12:55:28 GMT 38.871586 -7.345032 36,000 15 416 0
2019-01-08 12:55:25 GMT 38.865623 -7.347107 36,000 15 416 0
2019-01-08 12:55:20 GMT 38.857086 -7.350092 36,000 15 416 0
2019-01-08 12:55:16 GMT 38.846649 -7.353735 36,000 15 416 0
2019-01-08 12:55:11 GMT 38.839966 -7.356063 36,000 15 416 0
2019-01-08 12:55:08 GMT 38.834015 -7.358093 36,000 15 417 0
2019-01-08 12:55:04 GMT 38.827686 -7.360291 36,000 15 416 0
2019-01-08 12:54:59 GMT 38.818748 -7.363403 36,000 15 416 0
2019-01-08 12:54:53 GMT 38.807575 -7.367310 36,000 15 416 0
2019-01-08 12:54:50 GMT 38.800919 -7.369629 36,000 15 416 0
2019-01-08 12:54:44 GMT 38.789001 -7.373779 36,000 15 417 0
2019-01-08 12:54:40 GMT 38.780807 -7.376587 36,000 15 417 0
2019-01-08 12:54:32 GMT 38.768509 -7.380842 36,000 15 417 0
2019-01-08 12:54:28 GMT 38.760651 -7.383545 36,000 15 417 64
2019-01-08 12:54:23 GMT 38.749832 -7.387291 36,000 15 417 0
2019-01-08 12:54:18 GMT 38.730064 -7.394165 36,000 15 417 0
2019-01-08 12:54:12 GMT 38.730064 -7.394165 36,000 15 418 0
2019-01-08 12:54:07 GMT 38.721870 -7.397034 36,000 15 418 0
2019-01-08 12:54:03 GMT 38.712143 -7.400391 36,000 15 418 0
2019-01-08 12:53:59 GMT 38.703552 -7.403352 36,000 15 418 0
2019-01-08 12:53:56 GMT 38.699432 -7.404785 36,000 15 418 64
2019-01-08 12:53:51 GMT 38.690449 -7.407898 36,000 15 418 0
2019-01-08 12:53:46 GMT 38.680023 -7.411499 36,000 15 418 64
2019-01-08 12:53:41 GMT 38.670639 -7.414756 36,000 15 418 0
2019-01-08 12:53:37 GMT 38.664288 -7.416931 36,000 15 418 0
2019-01-08 12:53:34 GMT 38.657959 -7.419175 36,000 15 418 0
2019-01-08 12:53:29 GMT 38.649719 -7.422041 36,000 15 418 0
2019-01-08 12:53:25 GMT 38.641479 -7.424907 36,000 15 420 64
2019-01-08 12:53:19 GMT 38.631729 -7.428251 36,000 15 419 0
2019-01-08 12:53:15 GMT 38.621647 -7.431763 36,000 15 420 64
2019-01-08 12:53:08 GMT 38.611496 -7.435296 36,000 15 419 0
2019-01-08 12:53:04 GMT 38.602524 -7.438401 36,000 15 419 0
2019-01-08 12:52:59 GMT 38.585613 -7.444275 36,000 15 420 0
2019-01-08 12:52:56 GMT 38.585613 -7.444275 36,000 15 420 64
2019-01-08 12:52:49 GMT 38.572495 -7.448790 36,000 15 420 0
2019-01-08 12:52:45 GMT 38.567596 -7.450500 36,000 15 420 0
2019-01-08 12:52:42 GMT 38.562340 -7.452332 36,000 15 420 0
2019-01-08 12:52:38 GMT 38.552948 -7.455597 36,000 15 420 0
2019-01-08 12:52:35 GMT 38.543575 -7.458862 36,000 15 420 -64
2019-01-08 12:52:32 GMT 38.543575 -7.458862 36,000 15 420 0
2019-01-08 12:52:28 GMT 38.534180 -7.462105 36,000 15 420 0
2019-01-08 12:52:22 GMT 38.524384 -7.465509 36,000 15 421 0
2019-01-08 12:52:14 GMT 38.508198 -7.471069 36,000 15 421 0
2019-01-08 12:52:11 GMT 38.502937 -7.472900 36,000 15 421 0
2019-01-08 12:52:06 GMT 38.492371 -7.476501 36,000 15 421 0
2019-01-08 12:52:01 GMT 38.485199 -7.478943 36,000 15 422 0
2019-01-08 12:51:55 GMT 38.472771 -7.483215 36,000 15 422 0
2019-01-08 12:51:52 GMT 38.466385 -7.485451 36,000 15 422 0
2019-01-08 12:51:45 GMT 38.453175 -7.489929 36,000 14 422 0
2019-01-08 12:51:41 GMT 38.446377 -7.492249 36,000 14 422 0
2019-01-08 12:51:34 GMT 38.433151 -7.496796 36,000 14 422 0
2019-01-08 12:51:31 GMT 38.425240 -7.499451 36,000 15 422 0
2019-01-08 12:51:22 GMT 38.410492 -7.504480 36,000 15 422 0
2019-01-08 12:51:19 GMT 38.406342 -7.505931 36,000 15 422 0
2019-01-08 12:51:12 GMT 38.392002 -7.510827 36,000 15 422 0
2019-01-08 12:51:09 GMT 38.385952 -7.512917 36,000 15 422 0
2019-01-08 12:51:02 GMT 38.373150 -7.517335 36,000 15 422 0
2019-01-08 12:50:59 GMT 38.368240 -7.519031 36,000 15 422 0
2019-01-08 12:50:56 GMT 38.362198 -7.521135 36,000 15 423 0
2019-01-08 12:50:51 GMT 38.350479 -7.525157 36,000 15 422 -64
2019-01-08 12:50:48 GMT 38.346313 -7.526570 36,000 15 422 0
2019-01-08 12:50:42 GMT 38.335350 -7.530292 36,000 15 422 0
2019-01-08 12:50:39 GMT 38.329697 -7.532238 36,000 15 422 0
2019-01-08 12:50:36 GMT 38.321754 -7.534949 36,000 15 422 0
2019-01-08 12:50:32 GMT 38.316101 -7.536913 36,000 15 422 0
2019-01-08 12:50:29 GMT 38.310444 -7.538830 36,000 15 422 0
2019-01-08 12:50:25 GMT 38.303646 -7.541159 36,000 15 422 0
2019-01-08 12:50:21 GMT 38.294567 -7.544264 36,000 15 422 0
2019-01-08 12:50:18 GMT 38.290798 -7.545577 36,000 15 422 0
2019-01-08 12:50:15 GMT 38.284748 -7.547607 36,000 15 422 0
2019-01-08 12:50:08 GMT 38.272293 -7.551873 36,000 15 422 0
2019-01-08 12:50:04 GMT 38.261719 -7.555438 36,000 15 422 0
2019-01-08 12:49:57 GMT 38.251507 -7.558952 36,000 14 422 0
2019-01-08 12:49:50 GMT 38.235634 -7.564326 36,000 14 422 0
2019-01-08 12:49:47 GMT 38.231861 -7.565580 36,000 14 422 0
2019-01-08 12:49:37 GMT 38.211823 -7.572385 36,000 14 422 0
2019-01-08 12:49:28 GMT 38.194473 -7.578287 36,000 14 422 0
2019-01-08 12:49:25 GMT 38.190674 -7.579573 36,000 14 422 0
2019-01-08 12:49:21 GMT 38.182751 -7.582238 36,000 14 422 0
2019-01-08 12:49:15 GMT 38.171814 -7.585943 36,000 15 422 0
2019-01-08 12:49:11 GMT 38.161240 -7.589566 36,000 15 422 0
2019-01-08 12:49:08 GMT 38.155563 -7.591493 36,000 15 422 0
2019-01-08 12:49:05 GMT 38.152176 -7.592663 36,000 15 422 0
2019-01-08 12:49:01 GMT 38.144669 -7.595234 36,000 15 422 0
2019-01-08 12:48:55 GMT 38.132195 -7.599494 36,000 15 422 0
2019-01-08 12:48:49 GMT 38.122742 -7.602714 36,000 15 422 64
2019-01-08 12:48:46 GMT 38.116745 -7.604760 36,000 15 422 0
2019-01-08 12:48:43 GMT 38.111061 -7.606719 36,000 13 422 0
2019-01-08 12:48:39 GMT 38.103836 -7.608967 36,000 13 422 0
2019-01-08 12:48:33 GMT 38.092392 -7.612181 36,000 11 424 0
2019-01-08 12:48:29 GMT 38.084293 -7.614122 36,000 10 424 0
2019-01-08 12:48:25 GMT 38.076141 -7.615804 36,000 7 425 0
2019-01-08 12:48:18 GMT 38.060879 -7.618123 36,000 5 426 -64
2019-01-08 12:48:13 GMT 38.051472 -7.619317 36,000 5 426 0
2019-01-08 12:48:08 GMT 38.043606 -7.620332 36,000 5 426 0
2019-01-08 12:48:04 GMT 38.034992 -7.621407 36,000 5 426 0
2019-01-08 12:47:54 GMT 38.009064 -7.624691 36,000 5 426 0
2019-01-08 12:47:48 GMT 38.003220 -7.625447 36,000 5 426 0
2019-01-08 12:47:43 GMT 37.993378 -7.626721 36,000 5 426 64
2019-01-08 12:47:40 GMT 37.987137 -7.627557 36,000 5 426 0
2019-01-08 12:47:33 GMT 37.972195 -7.629527 36,000 6 426 -64
2019-01-08 12:47:30 GMT 37.967491 -7.630124 36,000 5 426 0
2019-01-08 12:47:27 GMT 37.960831 -7.630998 36,000 5 426 -64
2019-01-08 12:47:22 GMT 37.952225 -7.632109 36,000 5 426 0
2019-01-08 12:47:19 GMT 37.945953 -7.632927 36,000 5 426 0
2019-01-08 12:47:14 GMT 37.935745 -7.634271 36,000 5 426 0
2019-01-08 12:47:11 GMT 37.930252 -7.635031 36,000 5 426 0
2019-01-08 12:47:08 GMT 37.922802 -7.635976 36,000 5 426 0
2019-01-08 12:47:04 GMT 37.914192 -7.637110 36,000 5 426 0
2019-01-08 12:47:00 GMT 37.903996 -7.638424 36,000 5 426 -64
2019-01-08 12:46:54 GMT 37.897713 -7.639260 36,000 5 426 0
2019-01-08 12:46:50 GMT 37.889843 -7.640275 36,000 5 426 0
2019-01-08 12:46:47 GMT 37.882816 -7.641170 36,000 5 426 64
2019-01-08 12:46:42 GMT 37.872620 -7.642544 36,000 5 426 64
2019-01-08 12:46:39 GMT 37.868664 -7.643021 36,000 5 426 64
2019-01-08 12:46:36 GMT 37.862000 -7.643913 36,000 5 426 0
2019-01-08 12:46:33 GMT 37.853767 -7.644932 36,000 5 426 -64
2019-01-08 12:46:29 GMT 37.848633 -7.645608 36,000 5 426 0
2019-01-08 12:46:26 GMT 37.842731 -7.646425 36,000 5 426 0
2019-01-08 12:46:22 GMT 37.830597 -7.648004 36,000 5 426 -64
2019-01-08 12:46:19 GMT 37.828629 -7.648216 36,000 5 426 -64
2019-01-08 12:46:16 GMT 37.822723 -7.648997 36,000 5 426 0
2019-01-08 12:46:12 GMT 37.814896 -7.650049 36,000 5 426 0
2019-01-08 12:46:09 GMT 37.807800 -7.650926 36,000 5 426 0
2019-01-08 12:46:05 GMT 37.802307 -7.651627 36,000 5 426 0
2019-01-08 12:46:01 GMT 37.794876 -7.652634 36,000 5 426 64
2019-01-08 12:45:58 GMT 37.787384 -7.653614 36,000 5 426 -64
2019-01-08 12:45:55 GMT 37.781891 -7.654315 36,000 5 426 0
2019-01-08 12:45:51 GMT 37.770905 -7.655718 36,000 5 426 0
2019-01-08 12:45:48 GMT 37.760696 -7.657062 36,000 5 426 -64
2019-01-08 12:45:44 GMT 37.760696 -7.657062 36,000 5 426 0
2019-01-08 12:45:40 GMT 37.749710 -7.658464 36,000 5 426 64
2019-01-08 12:45:37 GMT 37.747768 -7.658725 36,000 5 426 0
2019-01-08 12:45:34 GMT 37.740692 -7.659680 36,000 5 426 0
2019-01-08 12:45:30 GMT 37.732079 -7.660814 36,000 5 426 0
2019-01-08 12:45:26 GMT 37.723419 -7.661889 36,000 5 426 -64
2019-01-08 12:45:23 GMT 37.718353 -7.662555 36,000 6 426 0
2019-01-08 12:45:18 GMT 37.709702 -7.663724 36,000 5 426 0
2019-01-08 12:45:14 GMT 37.699909 -7.664994 36,000 6 425 -64
2019-01-08 12:45:09 GMT 37.691299 -7.666128 36,000 5 425 -64
2019-01-08 12:45:06 GMT 37.679565 -7.667681 36,000 5 425 64
2019-01-08 12:45:03 GMT 37.679565 -7.667681 36,000 5 425 64
2019-01-08 12:44:57 GMT 37.667789 -7.669174 36,000 5 425 0
2019-01-08 12:44:53 GMT 37.658020 -7.670444 36,000 5 425 0
2019-01-08 12:44:49 GMT 37.650970 -7.671379 36,000 5 425 0
2019-01-08 12:44:45 GMT 37.644699 -7.672197 36,000 5 425 64
2019-01-08 12:44:42 GMT 37.640030 -7.672840 36,000 5 425 0
2019-01-08 12:44:39 GMT 37.633759 -7.673658 36,000 5 425 0
2019-01-08 12:44:36 GMT 37.627487 -7.674476 36,000 5 425 0
2019-01-08 12:44:32 GMT 37.619282 -7.675503 36,000 5 425 0
2019-01-08 12:44:29 GMT 37.614582 -7.676100 36,000 5 424 0
2019-01-08 12:44:24 GMT 37.603271 -7.677573 36,000 5 424 0
2019-01-08 12:44:21 GMT 37.598557 -7.678158 36,000 5 424 0
2019-01-08 12:44:15 GMT 37.586464 -7.679742 36,000 5 424 0
2019-01-08 12:44:12 GMT 37.579834 -7.680554 36,000 5 424 0
2019-01-08 12:44:09 GMT 37.574734 -7.681235 36,000 5 424 -64
2019-01-08 12:44:06 GMT 37.566559 -7.682248 36,000 5 422 0
2019-01-08 12:44:03 GMT 37.562668 -7.682716 36,000 5 423 0
2019-01-08 12:44:00 GMT 37.554482 -7.683742 36,000 5 423 0
2019-01-08 12:43:57 GMT 37.549393 -7.684352 36,000 5 422 64
2019-01-08 12:43:50 GMT 37.536942 -7.685872 36,000 5 422 0
2019-01-08 12:43:47 GMT 37.527946 -7.686967 36,000 5 423 0
2019-01-08 12:43:42 GMT 37.522499 -7.687683 36,000 5 423 0
2019-01-08 12:43:39 GMT 37.516663 -7.688384 36,000 5 423 0
2019-01-08 12:43:35 GMT 37.504623 -7.689952 36,000 5 422 0
2019-01-08 12:43:32 GMT 37.502655 -7.690196 36,000 5 422 64
2019-01-08 12:43:28 GMT 37.492149 -7.691504 36,000 5 422 0
2019-01-08 12:43:25 GMT 37.487091 -7.692124 36,000 5 422 0
2019-01-08 12:43:20 GMT 37.477390 -7.693355 36,000 5 422 0
2019-01-08 12:43:17 GMT 37.473083 -7.693936 36,000 5 422 0
2019-01-08 12:43:14 GMT 37.465347 -7.694929 36,000 5 422 0
2019-01-08 12:43:11 GMT 37.462234 -7.695338 36,000 5 422 0
2019-01-08 12:43:06 GMT 37.444336 -7.697618 36,000 5 422 0
2019-01-08 12:43:03 GMT 37.444336 -7.697618 36,000 5 422 0
2019-01-08 12:43:00 GMT 37.441223 -7.697968 36,000 5 422 0
2019-01-08 12:42:57 GMT 37.434998 -7.698786 36,000 5 422 0
2019-01-08 12:42:53 GMT 37.425659 -7.699955 36,000 5 422 0
2019-01-08 12:42:48 GMT 37.414360 -7.701356 36,000 5 422 -64
2019-01-08 12:42:44 GMT 37.405842 -7.702431 36,000 5 422 0
2019-01-08 12:42:38 GMT 37.395741 -7.703685 36,000 5 422 64
2019-01-08 12:42:35 GMT 37.391827 -7.704163 36,000 5 422 64
2019-01-08 12:42:32 GMT 37.385239 -7.704981 36,000 5 422 0
2019-01-08 12:42:29 GMT 37.380569 -7.705565 36,000 5 422 0
2019-01-08 12:42:26 GMT 37.372009 -7.706675 36,000 5 422 0
2019-01-08 12:42:21 GMT 37.361523 -7.708044 36,000 5 422 0
2019-01-08 12:42:18 GMT 37.358780 -7.708370 36,000 5 422 0
2019-01-08 12:42:15 GMT 37.352554 -7.709188 36,000 5 423 -64
2019-01-08 12:42:11 GMT 37.343601 -7.710313 36,000 5 423 -64
2019-01-08 12:42:08 GMT 37.332706 -7.711686 36,000 5 423 0
2019-01-08 12:42:05 GMT 37.332706 -7.711686 36,000 5 423 0
2019-01-08 12:42:01 GMT 37.325317 -7.712636 36,000 5 423 0
2019-01-08 12:41:58 GMT 37.319485 -7.713417 36,000 5 423 0
2019-01-08 12:41:55 GMT 37.313248 -7.714194 36,000 5 423 0
2019-01-08 12:41:52 GMT 37.306217 -7.715089 36,000 5 423 0
2019-01-08 12:41:45 GMT 37.293411 -7.716785 36,000 5 423 64
2019-01-08 12:41:41 GMT 37.284431 -7.717896 36,000 5 423 0
2019-01-08 12:41:37 GMT 37.278194 -7.718731 36,000 5 423 -64
2019-01-08 12:41:34 GMT 37.272354 -7.719473 36,000 5 423 0
2019-01-08 12:41:30 GMT 37.262646 -7.720762 36,000 5 423 64
2019-01-08 12:41:24 GMT 37.244385 -7.723155 36,000 5 422 64
2019-01-08 12:41:20 GMT 37.244385 -7.723155 36,000 5 422 0
2019-01-08 12:41:14 GMT 37.233086 -7.724643 36,000 5 422 0
2019-01-08 12:41:09 GMT 37.222595 -7.726018 36,000 5 422 0
2019-01-08 12:41:04 GMT 37.213257 -7.727187 36,000 5 422 0
2019-01-08 12:41:01 GMT 37.207031 -7.728005 36,000 5 422 0
2019-01-08 12:40:51 GMT 37.188812 -7.730375 36,000 5 422 0
2019-01-08 12:40:48 GMT 37.182953 -7.731102 36,000 5 422 -64
2019-01-08 12:40:43 GMT 37.172104 -7.732505 36,000 5 421 64
2019-01-08 12:40:39 GMT 37.164700 -7.733420 36,000 5 421 64
2019-01-08 12:40:34 GMT 37.155807 -7.734550 36,000 5 421 0
2019-01-08 12:40:31 GMT 37.148407 -7.735509 36,000 5 421 0
2019-01-08 12:40:28 GMT 37.145691 -7.735836 36,000 5 421 0
2019-01-08 12:40:22 GMT 37.130577 -7.737778 36,000 5 421 0
2019-01-08 12:40:19 GMT 37.125549 -7.738407 36,000 5 421 0
2019-01-08 12:40:11 GMT 37.110031 -7.740336 36,000 5 421 0
2019-01-08 12:40:01 GMT 37.084488 -7.743491 36,000 5 420 0
2019-01-08 12:39:51 GMT 37.070946 -7.745182 36,000 5 420 64
2019-01-08 12:39:47 GMT 37.063217 -7.746197 36,000 5 420 0
2019-01-08 12:39:40 GMT 37.050087 -7.747869 36,000 5 420 0
2019-01-08 12:39:36 GMT 37.041962 -7.748926 36,000 5 420 0
2019-01-08 12:39:31 GMT 37.033447 -7.749978 36,000 5 420 0
2019-01-08 12:39:28 GMT 37.029186 -7.750556 36,000 5 420 0
2019-01-08 12:39:25 GMT 37.022251 -7.751452 36,000 5 420 0
2019-01-08 12:39:18 GMT 37.009121 -7.753123 36,000 5 420 0
2019-01-08 12:39:15 GMT 37.002930 -7.753900 36,000 5 420 -64
2019-01-08 12:39:10 GMT 36.994034 -7.755004 36,000 5 420 0
2019-01-08 12:39:07 GMT 36.987854 -7.755763 36,000 5 420 0
2019-01-08 12:39:04 GMT 36.980492 -7.756706 36,000 5 420 0
2019-01-08 12:39:00 GMT 36.973938 -7.757516 36,000 5 420 0
2019-01-08 12:38:56 GMT 36.963867 -7.758744 36,000 5 420 0
2019-01-08 12:38:48 GMT 36.948792 -7.760647 36,000 5 420 0
2019-01-08 12:38:42 GMT 36.939102 -7.761841 36,000 5 420 0
2019-01-08 12:38:39 GMT 36.934479 -7.762367 36,000 5 420 0
2019-01-08 12:38:34 GMT 36.924026 -7.763692 36,000 5 420 0
2019-01-08 12:38:31 GMT 36.918579 -7.764349 36,000 5 420 -64
2019-01-08 12:38:27 GMT 36.909313 -7.765543 36,000 5 420 0
2019-01-08 12:38:24 GMT 36.902710 -7.766341 36,000 5 420 0
2019-01-08 12:38:19 GMT 36.894604 -7.767394 36,000 5 420 64
2019-01-08 12:38:14 GMT 36.882614 -7.768853 36,000 5 420 0
2019-01-08 12:38:08 GMT 36.874100 -7.769964 36,000 5 420 0
2019-01-08 12:38:05 GMT 36.867512 -7.770797 36,000 6 420 64
2019-01-08 12:37:58 GMT 36.853958 -7.772535 36,000 5 420 0
2019-01-08 12:37:54 GMT 36.843536 -7.773879 36,000 6 420 -64
2019-01-08 12:37:49 GMT 36.838089 -7.774580 36,000 6 420 0
2019-01-08 12:37:46 GMT 36.831154 -7.775515 36,000 5 420 -64
2019-01-08 12:37:42 GMT 36.822235 -7.776661 36,000 6 420 0
2019-01-08 12:37:38 GMT 36.804062 -7.779022 36,000 5 420 0
2019-01-08 12:37:33 GMT 36.804062 -7.779022 36,000 5 420 -64
2019-01-08 12:37:27 GMT 36.794357 -7.780209 36,000 5 420 -64
2019-01-08 12:37:22 GMT 36.785439 -7.781359 36,000 5 420 0
2019-01-08 12:37:19 GMT 36.778885 -7.782211 36,000 5 420 0
2019-01-08 12:37:15 GMT 36.771519 -7.783112 36,000 5 421 0
2019-01-08 12:37:11 GMT 36.762589 -7.784214 36,000 5 421 0
2019-01-08 12:37:08 GMT 36.750618 -7.785742 36,000 5 421 -64
2019-01-08 12:37:04 GMT 36.750618 -7.785742 36,000 5 421 0
2019-01-08 12:37:01 GMT 36.740891 -7.786961 36,000 5 421 0
2019-01-08 12:36:54 GMT 36.730087 -7.788277 36,000 5 421 64
2019-01-08 12:36:49 GMT 36.720749 -7.789478 36,000 5 421 0
2019-01-08 12:36:44 GMT 36.710678 -7.790737 36,000 5 421 0
2019-01-08 12:36:40 GMT 36.702530 -7.791761 36,000 5 421 -64
2019-01-08 12:36:33 GMT 36.690937 -7.793222 36,000 5 421 0
2019-01-08 12:36:29 GMT 36.682755 -7.794228 36,000 5 421 0
2019-01-08 12:36:23 GMT 36.669991 -7.795852 36,000 5 420 -64
2019-01-08 12:36:19 GMT 36.661835 -7.796860 36,000 5 420 -64
2019-01-08 12:36:15 GMT 36.642895 -7.799241 36,000 5 420 64
2019-01-08 12:36:10 GMT 36.642895 -7.799241 36,000 5 420 0
2019-01-08 12:36:02 GMT 36.620087 -7.802067 36,000 5 420 0
2019-01-08 12:35:57 GMT 36.620087 -7.802067 36,000 5 420 -64
2019-01-08 12:35:54 GMT 36.614265 -7.802747 36,000 5 420 0
2019-01-08 12:35:51 GMT 36.609657 -7.803332 36,000 5 419 0
2019-01-08 12:35:47 GMT 36.598812 -7.804676 36,000 5 419 -64
2019-01-08 12:35:44 GMT 36.594589 -7.805214 36,000 5 420 -64
2019-01-08 12:35:41 GMT 36.589546 -7.805786 36,000 5 419 0
2019-01-08 12:35:38 GMT 36.577953 -7.807247 36,000 5 420 0
2019-01-08 12:35:31 GMT 36.569485 -7.808299 36,000 5 420 0
2019-01-08 12:35:26 GMT 36.557892 -7.809760 36,000 5 420 0
2019-01-08 12:35:22 GMT 36.552063 -7.810478 36,000 5 420 0
2019-01-08 12:35:19 GMT 36.543926 -7.811455 36,000 5 420 0
2019-01-08 12:35:16 GMT 36.538525 -7.812156 36,000 5 420 0
2019-01-08 12:35:13 GMT 36.534660 -7.812623 36,000 5 420 0
2019-01-08 12:35:08 GMT 36.523407 -7.814026 36,000 5 420 0
2019-01-08 12:35:05 GMT 36.520744 -7.814377 36,000 5 421 0
2019-01-08 12:35:00 GMT 36.509491 -7.815742 36,000 5 420 0
2019-01-08 12:34:56 GMT 36.501755 -7.816715 36,000 5 421 0
2019-01-08 12:34:52 GMT 36.493973 -7.817688 36,000 5 421 0
2019-01-08 12:34:47 GMT 36.484291 -7.818935 36,000 5 421 64
2019-01-08 12:34:42 GMT 36.474983 -7.820103 36,000 5 421 0
2019-01-08 12:34:39 GMT 36.469162 -7.820835 36,000 5 421 0
2019-01-08 12:34:35 GMT 36.460648 -7.821865 36,000 5 422 0
2019-01-08 12:34:31 GMT 36.454422 -7.822666 36,000 5 422 0
2019-01-08 12:34:26 GMT 36.443932 -7.823960 36,000 5 422 0
2019-01-08 12:34:22 GMT 36.434620 -7.825129 36,000 5 422 0
2019-01-08 12:34:18 GMT 36.428009 -7.825928 36,000 5 422 0
2019-01-08 12:34:14 GMT 36.418282 -7.827174 36,000 5 423 0
2019-01-08 12:34:06 GMT 36.403061 -7.829075 36,000 5 423 0
2019-01-08 12:34:02 GMT 36.397614 -7.829704 36,000 5 423 0
2019-01-08 12:33:59 GMT 36.381271 -7.831764 36,000 5 423 0
2019-01-08 12:33:54 GMT 36.381271 -7.831764 36,000 5 423 0
2019-01-08 12:33:50 GMT 36.373871 -7.832668 36,000 5 424 0
2019-01-08 12:33:47 GMT 36.368774 -7.833252 36,000 5 423 0
2019-01-08 12:33:44 GMT 36.359814 -7.834362 36,000 5 423 0
2019-01-08 12:33:40 GMT 36.354366 -7.835005 36,000 5 424 0
2019-01-08 12:33:37 GMT 36.348495 -7.835712 36,000 5 424 0
2019-01-08 12:33:34 GMT 36.340305 -7.836700 36,000 5 424 0
2019-01-08 12:33:30 GMT 36.335266 -7.837315 36,000 5 423 0
2019-01-08 12:33:23 GMT 36.320007 -7.839154 36,000 5 423 0
2019-01-08 12:33:20 GMT 36.314564 -7.839855 36,000 5 423 0
2019-01-08 12:33:16 GMT 36.306744 -7.840790 36,000 5 424 0
2019-01-08 12:33:13 GMT 36.299332 -7.841663 36,000 5 424 0
2019-01-08 12:33:09 GMT 36.294266 -7.842310 36,000 5 423 0
2019-01-08 12:33:04 GMT 36.282536 -7.843712 36,000 5 424 0
2019-01-08 12:32:59 GMT 36.273922 -7.844764 36,000 5 424 0
2019-01-08 12:32:52 GMT 36.258282 -7.846693 36,000 5 425 0
2019-01-08 12:32:48 GMT 36.252834 -7.847335 36,000 5 425 64
2019-01-08 12:32:44 GMT 36.245014 -7.848270 36,000 5 425 0
2019-01-08 12:32:37 GMT 36.230907 -7.850024 36,000 5 425 0
2019-01-08 12:32:32 GMT 36.222298 -7.851076 36,000 5 425 0
2019-01-08 12:32:28 GMT 36.212147 -7.852303 36,000 5 425 64
2019-01-08 12:32:20 GMT 36.198044 -7.853997 36,000 5 425 64
2019-01-08 12:32:17 GMT 36.190224 -7.854932 36,000 5 425 0
2019-01-08 12:32:11 GMT 36.180450 -7.856140 36,000 5 425 -64
2019-01-08 12:32:05 GMT 36.169086 -7.857562 36,000 5 425 0
2019-01-08 12:32:00 GMT 36.159683 -7.858672 36,000 5 425 0
2019-01-08 12:31:55 GMT 36.147953 -7.860133 36,000 5 425 0
2019-01-08 12:31:52 GMT 36.144424 -7.860546 36,000 5 425 0
2019-01-08 12:31:49 GMT 36.138550 -7.861302 36,000 5 425 0
2019-01-08 12:31:45 GMT 36.129547 -7.862434 36,000 6 425 0
2019-01-08 12:31:39 GMT 36.117828 -7.863922 36,000 5 425 0
2019-01-08 12:31:34 GMT 36.108849 -7.865101 36,000 6 425 0
2019-01-08 12:31:31 GMT 36.101395 -7.866096 36,000 6 425 0
2019-01-08 12:31:28 GMT 36.097504 -7.866611 36,000 6 424 0
2019-01-08 12:31:25 GMT 36.090832 -7.867497 36,000 6 424 0
2019-01-08 12:31:22 GMT 36.082626 -7.868671 36,000 6 424 0
2019-01-08 12:31:19 GMT 36.078735 -7.869186 36,000 6 424 0
2019-01-08 12:31:16 GMT 36.071327 -7.870185 36,000 6 424 0
2019-01-08 12:31:07 GMT 36.054893 -7.872464 36,000 6 424 0
2019-01-08 12:31:03 GMT 36.047470 -7.873535 36,000 6 424 0
2019-01-08 12:30:58 GMT 36.037308 -7.874966 36,000 6 424 0
2019-01-08 12:30:52 GMT 36.026413 -7.876453 36,000 6 424 -64
2019-01-08 12:30:48 GMT 36.015839 -7.877899 36,000 6 424 0
2019-01-08 12:30:45 GMT 36.012718 -7.878308 36,000 6 424 0
2019-01-08 12:30:42 GMT 36.004532 -7.879372 36,000 5 424 0
2019-01-08 12:30:39 GMT 36.000988 -7.879827 36,000 5 424 0
2019-01-08 12:30:35 GMT 35.993168 -7.880762 36,000 5 424 0
2019-01-08 12:30:30 GMT 35.981827 -7.882004 36,000 3 424 64
2019-01-08 12:30:27 GMT 35.975941 -7.882574 36,000 3 424 0
2019-01-08 12:30:24 GMT 35.972031 -7.882866 36,000 3 424 0
2019-01-08 12:30:21 GMT 35.966125 -7.883320 36,000 3 425 0
2019-01-08 12:30:18 GMT 35.959854 -7.883778 36,000 3 425 0
2019-01-08 12:30:15 GMT 35.954716 -7.884151 36,000 3 425 0
2019-01-08 12:30:11 GMT 35.945263 -7.884794 36,000 3 426 -64
2019-01-08 12:30:07 GMT 35.934231 -7.885554 36,000 3 426 0
2019-01-08 12:30:04 GMT 35.931473 -7.885780 36,000 3 426 0
2019-01-08 12:30:00 GMT 35.924377 -7.886238 36,000 3 427 0
2019-01-08 12:29:56 GMT 35.913345 -7.887039 36,000 3 427 0
2019-01-08 12:29:53 GMT 35.910583 -7.887190 36,000 3 427 0
2019-01-08 12:29:47 GMT 35.895546 -7.888242 36,000 3 428 0
2019-01-08 12:29:43 GMT 35.889961 -7.888593 36,000 3 428 0
2019-01-08 12:29:39 GMT 35.882046 -7.889119 36,000 3 429 0
2019-01-08 12:29:32 GMT 35.868164 -7.890072 36,000 3 429 -64
2019-01-08 12:29:28 GMT 35.861423 -7.890521 36,000 3 429 -64
2019-01-08 12:29:21 GMT 35.847134 -7.891456 36,000 3 429 0
2019-01-08 12:29:17 GMT 35.839172 -7.891982 36,000 3 429 -64
2019-01-08 12:29:14 GMT 35.830421 -7.892566 36,000 3 429 0
2019-01-08 12:29:11 GMT 35.827255 -7.892742 36,000 3 429 64
2019-01-08 12:29:08 GMT 35.818501 -7.893326 36,000 3 429 0
2019-01-08 12:29:01 GMT 35.806583 -7.894144 36,000 3 429 0
2019-01-08 12:28:57 GMT 35.796249 -7.894846 36,000 3 429 0
2019-01-08 12:28:50 GMT 35.785538 -7.895622 36,000 3 429 0
2019-01-08 12:28:45 GMT 35.776016 -7.896252 36,000 3 429 0
2019-01-08 12:28:39 GMT 35.764114 -7.897110 36,000 3 429 0
2019-01-08 12:28:35 GMT 35.755371 -7.897739 36,000 3 429 0
2019-01-08 12:28:29 GMT 35.743469 -7.898598 36,000 3 428 0
2019-01-08 12:28:25 GMT 35.720490 -7.900372 36,000 3 428 0
2019-01-08 12:28:17 GMT 35.720490 -7.900372 36,000 3 428 0
2019-01-08 12:28:14 GMT 35.713760 -7.900923 36,000 3 428 0
2019-01-08 12:28:07 GMT 35.701096 -7.901975 36,000 3 428 64
2019-01-08 12:28:02 GMT 35.688034 -7.903004 36,000 3 428 0
2019-01-08 12:27:56 GMT 35.677734 -7.903862 36,000 3 427 0
2019-01-08 12:27:53 GMT 35.671818 -7.904371 36,000 3 427 0
2019-01-08 12:27:49 GMT 35.650448 -7.906007 36,000 3 427 0
2019-01-08 12:27:43 GMT 35.637405 -7.906952 36,000 3 427 0
2019-01-08 12:27:35 GMT 35.637405 -7.906952 36,000 3 427 0
2019-01-08 12:27:31 GMT 35.629532 -7.907524 36,000 3 426 0
2019-01-08 12:27:25 GMT 35.616512 -7.908462 36,000 3 426 -64
2019-01-08 12:27:21 GMT 35.609802 -7.908955 36,000 3 426 0
2019-01-08 12:27:14 GMT 35.595612 -7.909985 36,000 3 426 0
2019-01-08 12:27:10 GMT 35.588116 -7.910507 36,000 3 426 0
2019-01-08 12:27:04 GMT 35.575104 -7.911415 36,000 3 425 0
2019-01-08 12:27:00 GMT 35.567230 -7.911987 36,000 3 425 0
2019-01-08 12:26:53 GMT 35.554642 -7.912903 36,000 3 425 0
2019-01-08 12:26:49 GMT 35.546406 -7.913487 36,000 3 425 0
2019-01-08 12:26:43 GMT 35.533791 -7.914364 36,000 3 425 0
2019-01-08 12:26:39 GMT 35.526352 -7.914906 36,000 3 425 0
2019-01-08 12:26:33 GMT 35.513763 -7.915821 36,000 3 424 0
2019-01-08 12:26:28 GMT 35.504742 -7.916468 36,000 3 424 0
2019-01-08 12:26:22 GMT 35.493347 -7.917252 36,000 3 424 0
2019-01-08 12:26:18 GMT 35.484303 -7.917870 36,000 3 424 -64
2019-01-08 12:26:12 GMT 35.472527 -7.918747 36,000 3 424 0
2019-01-08 12:26:09 GMT 35.467033 -7.919097 36,000 3 424 64
2019-01-08 12:26:06 GMT 35.462723 -7.919426 36,000 3 424 0
2019-01-08 12:26:01 GMT 35.451344 -7.920208 36,000 3 424 0
2019-01-08 12:25:55 GMT 35.439972 -7.921028 36,000 3 424 0
2019-01-08 12:25:48 GMT 35.424717 -7.922136 36,000 3 423 -64
2019-01-08 12:25:45 GMT 35.420013 -7.922428 36,000 3 423 0
2019-01-08 12:25:40 GMT 35.411774 -7.923031 36,000 3 423 0
2019-01-08 12:25:34 GMT 35.399624 -7.923889 36,000 3 423 0
2019-01-08 12:25:30 GMT 35.391014 -7.924532 36,000 3 423 0
2019-01-08 12:25:25 GMT 35.379284 -7.925350 36,000 3 423 0
2019-01-08 12:25:19 GMT 35.370670 -7.925993 36,000 3 422 0
2019-01-08 12:25:14 GMT 35.359730 -7.926753 36,000 3 422 0
2019-01-08 12:25:08 GMT 35.348789 -7.927512 36,000 3 422 0
2019-01-08 12:25:03 GMT 35.339035 -7.928238 36,000 3 422 0
2019-01-08 12:24:59 GMT 35.330029 -7.928856 36,000 3 422 0
2019-01-08 12:24:53 GMT 35.319092 -7.929616 36,000 3 422 0
2019-01-08 12:24:48 GMT 35.309326 -7.930355 36,000 3 422 0
2019-01-08 12:24:42 GMT 35.298386 -7.931099 36,000 3 422 0
2019-01-08 12:24:38 GMT 35.289001 -7.931728 36,000 3 422 0
2019-01-08 12:24:31 GMT 35.276123 -7.932655 36,000 3 422 0
2019-01-08 12:24:27 GMT 35.257362 -7.933999 36,000 3 422 0
2019-01-08 12:24:22 GMT 35.257362 -7.933999 36,000 3 422 0
2019-01-08 12:24:16 GMT 35.246422 -7.934759 36,000 3 422 0
2019-01-08 12:24:13 GMT 35.239346 -7.935226 36,000 3 422 0
2019-01-08 12:24:10 GMT 35.234299 -7.935619 36,000 3 422 0
2019-01-08 12:24:06 GMT 35.226471 -7.936165 36,000 3 422 0
2019-01-08 12:24:01 GMT 35.215530 -7.936949 36,000 3 422 0
2019-01-08 12:23:55 GMT 35.206146 -7.937566 36,000 3 422 0
2019-01-08 12:23:50 GMT 35.194794 -7.938366 36,000 3 423 0
2019-01-08 12:23:45 GMT 35.186554 -7.938967 36,000 3 423 0
2019-01-08 12:23:39 GMT 35.174057 -7.939864 36,000 3 423 0
2019-01-08 12:23:34 GMT 35.165047 -7.940483 36,000 3 423 0
2019-01-08 12:23:31 GMT 35.158764 -7.940941 36,000 3 423 0
2019-01-08 12:23:28 GMT 35.153687 -7.941265 36,000 3 423 0
2019-01-08 12:23:24 GMT 35.144657 -7.941914 36,000 3 423 0
2019-01-08 12:23:21 GMT 35.138809 -7.942330 36,000 3 423 0
2019-01-08 12:23:18 GMT 35.132538 -7.942779 36,000 3 423 0
2019-01-08 12:23:14 GMT 35.124710 -7.943283 36,000 3 423 64
2019-01-08 12:23:08 GMT 35.111389 -7.944236 36,000 3 424 64
2019-01-08 12:23:01 GMT 35.098068 -7.945189 36,000 3 424 0
2019-01-08 12:22:57 GMT 35.090973 -7.945638 36,000 3 424 -64
2019-01-08 12:22:50 GMT 35.077652 -7.946591 36,000 3 424 0
2019-01-08 12:22:46 GMT 35.070175 -7.947121 36,000 3 424 0
2019-01-08 12:22:40 GMT 35.058014 -7.947992 36,000 3 424 0
2019-01-08 12:22:35 GMT 35.048203 -7.948723 36,000 3 424 0
2019-01-08 12:22:29 GMT 35.037216 -7.949467 36,000 3 424 0
2019-01-08 12:22:25 GMT 35.028946 -7.950066 36,000 3 425 0
2019-01-08 12:22:19 GMT 35.017525 -7.950897 36,000 3 425 0
2019-01-08 12:22:15 GMT 35.008484 -7.951523 36,000 3 425 0
2019-01-08 12:22:09 GMT 34.997089 -7.952385 36,000 3 426 0
2019-01-08 12:22:04 GMT 34.987591 -7.953014 36,000 3 426 0
2019-01-08 12:21:58 GMT 34.976559 -7.953815 36,000 3 426 0
2019-01-08 12:21:54 GMT 34.967468 -7.954438 36,000 3 427 0
2019-01-08 12:21:48 GMT 34.954445 -7.955360 36,000 3 427 0
2019-01-08 12:21:43 GMT 34.946136 -7.955951 36,000 3 427 0
2019-01-08 12:21:38 GMT 34.936661 -7.956568 36,000 3 427 0
2019-01-08 12:21:32 GMT 34.924805 -7.957409 36,000 3 428 0
2019-01-08 12:21:27 GMT 34.915283 -7.958025 36,000 3 428 0
2019-01-08 12:21:23 GMT 34.904591 -7.958794 36,000 3 428 0
2019-01-08 12:21:18 GMT 34.895092 -7.959423 36,000 3 428 0
2019-01-08 12:21:12 GMT 34.884384 -7.960155 36,000 3 429 0
2019-01-08 12:21:06 GMT 34.874084 -7.960884 36,000 3 429 0
2019-01-08 12:21:02 GMT 34.862961 -7.961669 36,000 3 429 0
2019-01-08 12:20:57 GMT 34.854218 -7.962229 36,000 3 429 0
2019-01-08 12:20:50 GMT 34.841492 -7.963126 36,000 3 430 0
2019-01-08 12:20:46 GMT 34.833527 -7.963687 36,000 3 430 64
2019-01-08 12:20:40 GMT 34.821167 -7.964573 36,000 3 430 0
2019-01-08 12:20:36 GMT 34.813614 -7.965088 36,000 3 431 0
2019-01-08 12:20:30 GMT 34.800449 -7.966003 36,000 3 431 -64
2019-01-08 12:20:25 GMT 34.791698 -7.966633 36,000 3 431 0
2019-01-08 12:20:19 GMT 34.778942 -7.967548 36,000 3 431 0
2019-01-08 12:20:15 GMT 34.772141 -7.968003 36,000 3 432 0
2019-01-08 12:20:09 GMT 34.757767 -7.969012 36,000 3 432 0
2019-01-08 12:20:05 GMT 34.750965 -7.969494 36,000 3 432 64
2019-01-08 12:19:58 GMT 34.736984 -7.970469 36,000 3 432 0
2019-01-08 12:19:55 GMT 34.730995 -7.970867 36,000 3 432 0
2019-01-08 12:19:48 GMT 34.714981 -7.972012 36,000 3 432 0
2019-01-08 12:19:44 GMT 34.709396 -7.972355 36,000 3 433 0
2019-01-08 12:19:35 GMT 34.691753 -7.973614 36,000 3 433 0
2019-01-08 12:19:27 GMT 34.673317 -7.974873 36,000 3 433 0
2019-01-08 12:19:24 GMT 34.668522 -7.975216 36,000 3 433 0
2019-01-08 12:19:14 GMT 34.648865 -7.976579 36,000 3 433 0
2019-01-08 12:19:04 GMT 34.628395 -7.978020 36,000 3 434 0
2019-01-08 12:18:53 GMT 34.606747 -7.979507 36,000 3 434 0
2019-01-08 12:18:45 GMT 34.588669 -7.980783 36,000 3 434 0
2019-01-08 12:18:40 GMT 34.581841 -7.981281 36,000 3 434 0
2019-01-08 12:18:33 GMT 34.568203 -7.982254 36,000 3 434 0
2019-01-08 12:18:22 GMT 34.545670 -7.983856 36,000 3 434 0
2019-01-08 12:18:12 GMT 34.523979 -7.985344 36,000 3 434 0
2019-01-08 12:18:01 GMT 34.503479 -7.986780 36,000 3 434 0
2019-01-08 12:17:50 GMT 34.480545 -7.988377 36,000 3 434 0
2019-01-08 12:17:40 GMT 34.460083 -7.989863 36,000 3 434 0
2019-01-08 12:17:29 GMT 34.438385 -7.991377 36,000 3 434 0
2019-01-08 12:17:19 GMT 34.419067 -7.992722 36,000 3 434 64
2019-01-08 12:17:08 GMT 34.396545 -7.994347 36,000 3 434 0
2019-01-08 12:16:58 GMT 34.377228 -7.995693 36,000 3 435 64
2019-01-08 12:16:49 GMT 34.357506 -7.997074 36,000 3 435 -64
2019-01-08 12:16:38 GMT 34.336605 -7.998505 36,000 3 435 -64
2019-01-08 12:16:27 GMT 34.313236 -8.000050 36,000 3 435 0
2019-01-08 12:16:17 GMT 34.293503 -8.001410 36,000 3 435 0
2019-01-08 12:16:07 GMT 34.273758 -8.002739 36,000 3 435 0
2019-01-08 12:15:57 GMT 34.252396 -8.004157 36,000 3 435 0
2019-01-08 12:15:46 GMT 34.230652 -8.005670 36,000 3 435 0
2019-01-08 12:15:38 GMT 34.213715 -8.006791 36,000 3 435 0
2019-01-08 12:15:35 GMT 34.209686 -8.007071 36,000 3 435 0
2019-01-08 12:15:26 GMT 34.188290 -8.008575 36,000 3 436 0
2019-01-08 12:15:15 GMT 34.167755 -8.009986 36,000 3 436 0
2019-01-08 12:15:04 GMT 34.146744 -8.011443 36,000 3 436 0
2019-01-08 12:14:54 GMT 34.126602 -8.012845 36,000 3 436 0
2019-01-08 12:14:43 GMT 34.105194 -8.014297 36,000 3 436 0
2019-01-08 12:14:34 GMT 34.083847 -8.015760 36,000 3 435 0
2019-01-08 12:14:23 GMT 34.062881 -8.017161 36,000 3 435 0
2019-01-08 12:14:13 GMT 34.041916 -8.018618 36,000 3 436 0
2019-01-08 12:14:02 GMT 34.021355 -8.020020 36,000 3 435 0
2019-01-08 12:13:52 GMT 33.999985 -8.021421 36,000 3 435 0
2019-01-08 12:13:41 GMT 33.978619 -8.022881 36,000 3 435 0
2019-01-08 12:13:31 GMT 33.957275 -8.024336 36,000 3 435 0
2019-01-08 12:13:20 GMT 33.936356 -8.025737 36,000 3 435 0
2019-01-08 12:13:10 GMT 33.915028 -8.027229 36,000 3 435 64
2019-01-08 12:12:58 GMT 33.893692 -8.028764 36,000 3 435 0
2019-01-08 12:12:49 GMT 33.872772 -8.030221 36,000 3 435 0
2019-01-08 12:12:38 GMT 33.851807 -8.031678 36,000 3 436 -64
2019-01-08 12:12:28 GMT 33.830795 -8.033136 36,000 3 437 64
2019-01-08 12:12:17 GMT 33.809353 -8.034611 36,000 3 438 0
2019-01-08 12:12:06 GMT 33.788265 -8.036098 36,000 3 438 0
2019-01-08 12:11:56 GMT 33.767132 -8.037529 36,000 3 439 0
2019-01-08 12:11:46 GMT 33.746044 -8.038960 36,000 3 439 -64
2019-01-08 12:11:35 GMT 33.724117 -8.040504 36,000 3 438 0
2019-01-08 12:11:29 GMT 33.712757 -8.041306 36,000 3 438 0
2019-01-08 12:11:23 GMT 33.700195 -8.042160 36,000 3 438 0
2019-01-08 12:11:12 GMT 33.678680 -8.043652 36,000 3 438 0
2019-01-08 12:11:01 GMT 33.656803 -8.045197 36,000 3 437 0
2019-01-08 12:10:53 GMT 33.638626 -8.046364 36,000 3 437 0
2019-01-08 12:10:43 GMT 33.617977 -8.047771 36,000 3 437 0
2019-01-08 12:10:30 GMT 33.593773 -8.049431 36,000 3 436 0
2019-01-08 12:10:22 GMT 33.575195 -8.050690 36,000 3 435 0
2019-01-08 12:10:11 GMT 33.554672 -8.052082 36,000 3 435 0
2019-01-08 12:10:01 GMT 33.533344 -8.053539 36,000 3 435 -64
2019-01-08 12:09:50 GMT 33.512833 -8.054901 36,000 3 434 0
2019-01-08 12:09:39 GMT 33.491493 -8.056286 36,000 3 434 0
2019-01-08 12:09:28 GMT 33.468613 -8.057758 36,000 3 434 0
2019-01-08 12:09:18 GMT 33.448948 -8.059032 36,000 3 433 0
2019-01-08 12:09:08 GMT 33.428089 -8.060434 36,000 3 424 0
2019-01-08 12:08:57 GMT 33.406815 -8.061823 36,000 3 433 0
2019-01-08 12:08:47 GMT 33.386032 -8.063251 36,000 3 424 0
2019-01-08 12:08:37 GMT 33.365711 -8.064637 36,000 3 429 0
2019-01-08 12:08:26 GMT 33.344345 -8.066095 36,000 3 426 0
2019-01-08 12:08:16 GMT 33.323906 -8.067440 36,000 3 421 0
2019-01-08 12:08:05 GMT 33.302773 -8.068897 36,000 3 421 0
2019-01-08 12:07:54 GMT 33.282570 -8.070243 36,025 3 418 0
2019-01-08 12:07:44 GMT 33.262505 -8.071644 35,875 3 416 960
2019-01-08 12:07:32 GMT 33.239368 -8.073214 35,750 3 417 896
2019-01-08 12:07:22 GMT 33.220840 -8.074447 35,600 3 417 960
2019-01-08 12:07:13 GMT 33.202312 -8.075736 35,225 3 417 896
2019-01-08 12:07:02 GMT 33.181824 -8.077148 35,275 3 417 896
2019-01-08 12:06:52 GMT 33.161728 -8.078522 35,125 3 417 896
2019-01-08 12:06:42 GMT 33.141281 -8.079940 34,950 3 417 960
2019-01-08 12:06:31 GMT 33.120804 -8.081268 34,775 3 417 1088
2019-01-08 12:06:21 GMT 33.100315 -8.082630 34,575 3 418 1024
2019-01-08 12:06:10 GMT 33.080612 -8.083905 34,375 3 418 1152
2019-01-08 12:05:59 GMT 33.060841 -8.085209 34,175 3 419 1152
2019-01-08 12:05:49 GMT 33.040283 -8.086597 33,950 3 419 1344
2019-01-08 12:05:38 GMT 33.019318 -8.088025 38,000 3 421 1536
2019-01-08 12:05:28 GMT 32.999039 -8.089398 33,450 3 422 1472
2019-01-08 12:05:17 GMT 32.978668 -8.090771 33,200 3 424 1280
2019-01-08 12:05:07 GMT 32.958298 -8.092145 32,975 3 423 1152
2019-01-08 12:04:57 GMT 32.937103 -8.093573 32,800 3 423 1152
2019-01-08 12:04:45 GMT 32.916389 -8.095018 32,600 3 422 1088
2019-01-08 12:04:36 GMT 32.895676 -8.096429 32,400 3 422 1216
2019-01-08 12:04:24 GMT 32.875004 -8.097821 32,175 3 421 1216
2019-01-08 12:04:15 GMT 32.854706 -8.099166 31,975 3 421 1216
2019-01-08 12:04:04 GMT 32.834412 -8.100511 31,750 3 421 1216
2019-01-08 12:03:54 GMT 32.813782 -8.101868 31,525 3 421 1280
2019-01-08 12:03:43 GMT 32.794327 -8.103131 31,325 3 420 1216
2019-01-08 12:03:33 GMT 32.773705 -8.104491 31,125 3 419 1152
2019-01-08 12:03:22 GMT 32.753174 -8.105878 30,900 3 418 1280
2019-01-08 12:03:12 GMT 32.732254 -8.107251 30,675 3 418 1280
2019-01-08 12:03:00 GMT 32.712204 -8.108569 30,450 3 417 1216
2019-01-08 12:02:51 GMT 32.691376 -8.109998 30,225 3 415 1152
2019-01-08 12:02:40 GMT 32.672150 -8.111261 30,025 3 414 1216
2019-01-08 12:02:29 GMT 32.652237 -8.112579 29,800 3 413 1280
2019-01-08 12:02:18 GMT 32.631256 -8.113964 29,600 3 411 1152
2019-01-08 12:02:09 GMT 32.612309 -8.115141 29,400 3 409 1216
2019-01-08 12:01:57 GMT 32.590759 -8.116534 29,175 3 407 1152
2019-01-08 12:01:48 GMT 32.572723 -8.117688 28,975 3 405 1088
2019-01-08 12:01:37 GMT 32.552910 -8.118953 28,775 3 402 1344
2019-01-08 12:01:27 GMT 32.533543 -8.120242 28,575 3 400 1216
2019-01-08 12:01:15 GMT 32.513618 -8.121531 28,325 3 398 1344
2019-01-08 12:01:05 GMT 32.494488 -8.122764 28,150 3 396 1152
2019-01-08 12:00:55 GMT 32.475494 -8.123997 27,925 3 393 1344
2019-01-08 12:00:45 GMT 32.456955 -8.125214 27,675 3 391 1344
2019-01-08 12:00:34 GMT 32.437786 -8.126520 27,450 3 389 1344
2019-01-08 12:00:23 GMT 32.418777 -8.127905 27,225 3 386 1216
2019-01-08 12:00:13 GMT 32.400970 -8.129279 27,000 3 383 1280
2019-01-08 12:00:03 GMT 32.382248 -8.130836 26,800 4 380 1344
2019-01-08 11:59:53 GMT 32.363346 -8.132517 26,550 4 377 1472
2019-01-08 11:59:42 GMT 32.345627 -8.134167 26,300 4 375 1472
2019-01-08 11:59:32 GMT 32.327728 -8.136475 26,025 8 372 1728
2019-01-08 11:59:21 GMT 32.309372 -8.139935 25,725 10 370 1664
2019-01-08 11:59:10 GMT 32.291565 -8.144064 25,400 15 369 1664
2019-01-08 11:59:00 GMT 32.275410 -8.150678 25,100 21 368 1856
2019-01-08 11:58:49 GMT 32.258884 -8.158189 24,775 21 367 1856
2019-01-08 11:58:39 GMT 32.242035 -8.165753 24,450 20 366 1856
2019-01-08 11:58:29 GMT 32.225925 -8.172987 24,125 20 364 1984
2019-01-08 11:58:19 GMT 32.209541 -8.180330 23,800 20 363 1856
2019-01-08 11:58:08 GMT 32.192825 -8.187561 23,425 19 362 2176
2019-01-08 11:57:57 GMT 32.175888 -8.192395 23,100 6 362 1856
2019-01-08 11:57:47 GMT 32.158493 -8.194043 22,775 3 360 2048
2019-01-08 11:57:36 GMT 32.140457 -8.194208 22,425 357 361 1984
2019-01-08 11:57:26 GMT 32.123558 -8.191317 22,075 348 361 2112
2019-01-08 11:57:16 GMT 32.106892 -8.185375 21,725 338 364 1856
2019-01-08 11:57:05 GMT 32.090790 -8.176300 21,400 333 362 1984
2019-01-08 11:56:55 GMT 32.075363 -8.166797 21,050 333 360 1920
2019-01-08 11:56:44 GMT 32.059177 -8.156844 20,675 333 356 2112
2019-01-08 11:56:33 GMT 32.044281 -8.147626 20,325 333 355 2176

Making use of Plane Finder data

You are free to use the raw flight data, aircraft information and images provided in this report for your own purposes provided the data is correctly attributed to Plane Finder. We ask that you please credit Plane Finder and link to planefinder.net in close proximity to the content.

Optionally one of the following logos (no smaller then 150x24px) can be used and must link to planefinder.net

Embedding the Plane Finder map

You are welcome to embed the Plane Finder playback map on your website to offer visitors a more interactive experience. We suggest using the following HTML code:

<iframe src="//planefinder.net/data/report/TO3013-F-GZHD-7700-squawk-2019-01-08/map" width="800" height="600" seamless="seamless"></iframe>

Where our data comes from

Plane Finder has a global network of data feeds and antenna radars that receive data broadcast directly from aircraft. The primary technologies used are ADS-B and MLAT. We also show feeds from the FAA and a FLARM glider feed.

Click here to find out more about the Plane Finder network.

How we collect our data